<?xml version="1.0" encoding="UTF-8" standalone="no" ?>
<gpx xmlns="http://www.topografix.com/GPX/1/1" xmlns:xsi="http://www.w3.org/2001/XMLSchema-instance" xsi:schemaLocation="http://www.topografix.com/GPX/1/1 http://www.topografix.com/GPX/1/1/gpx.xsd" version="1.1" creator="VisuGPX - https://www.visugpx.com">
  <metadata>
    <name>K2-St Paul en Jarez-Pavezin</name>
  </metadata>
  <trk>
    <name><![CDATA[K2-St Paul en Jarez-Pavezin]]></name>
    <extensions>
      <line xmlns="http://www.topografix.com/GPX/gpx_style/0/2">
        <color>0000FF</color>
        <width>4</width>
      </line>
    </extensions>
    <trkseg>
      <trkpt lat="45.48351" lon="4.57919">
        <ele>386.57137236037</ele>
        <time>2022-04-03T11:01:21.000Z</time>
      </trkpt>
      <trkpt lat="45.4838" lon="4.57852">
        <ele>387.27922878277</ele>
        <time>2022-04-03T11:01:21.011Z</time>
      </trkpt>
      <trkpt lat="45.48381" lon="4.57818">
        <ele>388.63915335447</ele>
        <time>2022-04-03T11:01:21.027Z</time>
      </trkpt>
      <trkpt lat="45.48374" lon="4.57785">
        <ele>389.89038341183</ele>
        <time>2022-04-03T11:01:21.048Z</time>
      </trkpt>
      <trkpt lat="45.4836" lon="4.57763">
        <ele>390.90750735492</ele>
        <time>2022-04-03T11:01:21.073Z</time>
      </trkpt>
      <trkpt lat="45.48341" lon="4.57747">
        <ele>391.83540519195</ele>
        <time>2022-04-03T11:01:21.102Z</time>
      </trkpt>
      <trkpt lat="45.48332" lon="4.57729">
        <ele>392.50196520761</ele>
        <time>2022-04-03T11:01:21.134Z</time>
      </trkpt>
      <trkpt lat="45.48329" lon="4.57693">
        <ele>392.83330368455</ele>
        <time>2022-04-03T11:01:21.171Z</time>
      </trkpt>
      <trkpt lat="45.4833" lon="4.57685">
        <ele>392.63851914082</ele>
        <time>2022-04-03T11:01:21.210Z</time>
      </trkpt>
      <trkpt lat="45.48339" lon="4.57655">
        <ele>392.00520909945</ele>
        <time>2022-04-03T11:01:21.253Z</time>
      </trkpt>
      <trkpt lat="45.48339" lon="4.57645">
        <ele>390.75484114789</ele>
        <time>2022-04-03T11:01:21.297Z</time>
      </trkpt>
      <trkpt lat="45.48345" lon="4.57645">
        <ele>388.73515824263</ele>
        <time>2022-04-03T11:01:21.343Z</time>
      </trkpt>
      <trkpt lat="45.48391" lon="4.57648">
        <ele>385.75510116857</ele>
        <time>2022-04-03T11:01:21.398Z</time>
      </trkpt>
      <trkpt lat="45.48391" lon="4.57663">
        <ele>382.15443336362</ele>
        <time>2022-04-03T11:01:21.455Z</time>
      </trkpt>
      <trkpt lat="45.48397" lon="4.57693">
        <ele>378.03684302666</ele>
        <time>2022-04-03T11:01:21.516Z</time>
      </trkpt>
      <trkpt lat="45.48403" lon="4.57781">
        <ele>373.63201612847</ele>
        <time>2022-04-03T11:01:21.590Z</time>
      </trkpt>
      <trkpt lat="45.48418" lon="4.57839">
        <ele>369.04739246804</ele>
        <time>2022-04-03T11:01:21.673Z</time>
      </trkpt>
      <trkpt lat="45.4847" lon="4.5794">
        <ele>363.91062669113</ele>
        <time>2022-04-03T11:01:21.773Z</time>
      </trkpt>
      <trkpt lat="45.48477" lon="4.57995">
        <ele>359.2133674667</ele>
        <time>2022-04-03T11:01:21.881Z</time>
      </trkpt>
      <trkpt lat="45.48481" lon="4.58017">
        <ele>353.23756149518</ele>
        <time>2022-04-03T11:01:22.100Z</time>
      </trkpt>
      <trkpt lat="45.48486" lon="4.5803">
        <ele>351.88352470148</ele>
        <time>2022-04-03T11:01:22.213Z</time>
      </trkpt>
      <trkpt lat="45.48523" lon="4.58047">
        <ele>351.77388896481</ele>
        <time>2022-04-03T11:01:22.334Z</time>
      </trkpt>
      <trkpt lat="45.48528" lon="4.58052">
        <ele>352.59981907882</ele>
        <time>2022-04-03T11:01:22.456Z</time>
      </trkpt>
      <trkpt lat="45.48533" lon="4.58063">
        <ele>354.3702575805</ele>
        <time>2022-04-03T11:01:22.580Z</time>
      </trkpt>
      <trkpt lat="45.48587" lon="4.58135">
        <ele>357.1669159013</ele>
        <time>2022-04-03T11:01:22.719Z</time>
      </trkpt>
      <trkpt lat="45.48589" lon="4.58146">
        <ele>360.37112802155</ele>
        <time>2022-04-03T11:01:22.860Z</time>
      </trkpt>
      <trkpt lat="45.48591" lon="4.58157">
        <ele>363.98151861484</ele>
        <time>2022-04-03T11:01:23.002Z</time>
      </trkpt>
      <trkpt lat="45.48589" lon="4.58197">
        <ele>368.12284771468</ele>
        <time>2022-04-03T11:01:23.150Z</time>
      </trkpt>
      <trkpt lat="45.48578" lon="4.58289">
        <ele>372.56375502126</ele>
        <time>2022-04-03T11:01:23.311Z</time>
      </trkpt>
      <trkpt lat="45.48582" lon="4.58306">
        <ele>376.89045741444</ele>
        <time>2022-04-03T11:01:23.474Z</time>
      </trkpt>
      <trkpt lat="45.48593" lon="4.58321">
        <ele>381.16604704364</ele>
        <time>2022-04-03T11:01:23.640Z</time>
      </trkpt>
      <trkpt lat="45.4862" lon="4.58342">
        <ele>385.43000066668</ele>
        <time>2022-04-03T11:01:23.813Z</time>
      </trkpt>
      <trkpt lat="45.48725" lon="4.58413">
        <ele>390.23094671057</ele>
        <time>2022-04-03T11:01:24.009Z</time>
      </trkpt>
      <trkpt lat="45.48767" lon="4.58436">
        <ele>394.37732828128</ele>
        <time>2022-04-03T11:01:24.214Z</time>
      </trkpt>
      <trkpt lat="45.48777" lon="4.58447">
        <ele>398.20080516078</ele>
        <time>2022-04-03T11:01:24.421Z</time>
      </trkpt>
      <trkpt lat="45.48785" lon="4.58469">
        <ele>401.85060389683</ele>
        <time>2022-04-03T11:01:24.632Z</time>
      </trkpt>
      <trkpt lat="45.48828" lon="4.58603">
        <ele>405.62166571836</ele>
        <time>2022-04-03T11:01:24.864Z</time>
      </trkpt>
      <trkpt lat="45.48837" lon="4.58671">
        <ele>408.9655390268</ele>
        <time>2022-04-03T11:01:25.105Z</time>
      </trkpt>
      <trkpt lat="45.48849" lon="4.58758">
        <ele>411.94946659916</ele>
        <time>2022-04-03T11:01:25.359Z</time>
      </trkpt>
      <trkpt lat="45.48852" lon="4.58849">
        <ele>414.75122089847</ele>
        <time>2022-04-03T11:01:25.626Z</time>
      </trkpt>
      <trkpt lat="45.4886" lon="4.58914">
        <ele>417.41359889052</ele>
        <time>2022-04-03T11:01:25.902Z</time>
      </trkpt>
      <trkpt lat="45.48876" lon="4.58959">
        <ele>419.80418198682</ele>
        <time>2022-04-03T11:01:26.185Z</time>
      </trkpt>
      <trkpt lat="45.48912" lon="4.59038">
        <ele>422.19114461853</ele>
        <time>2022-04-03T11:01:26.481Z</time>
      </trkpt>
      <trkpt lat="45.48956" lon="4.59123">
        <ele>425.94035637123</ele>
        <time>2022-04-03T11:01:27.088Z</time>
      </trkpt>
      <trkpt lat="45.48995" lon="4.59218">
        <ele>427.89758689675</ele>
        <time>2022-04-03T11:01:27.415Z</time>
      </trkpt>
      <trkpt lat="45.49037" lon="4.59307">
        <ele>429.78334344062</ele>
        <time>2022-04-03T11:01:27.757Z</time>
      </trkpt>
      <trkpt lat="45.49057" lon="4.59334">
        <ele>431.4294714807</ele>
        <time>2022-04-03T11:01:28.104Z</time>
      </trkpt>
      <trkpt lat="45.49105" lon="4.59394">
        <ele>433.04792477755</ele>
        <time>2022-04-03T11:01:28.464Z</time>
      </trkpt>
      <trkpt lat="45.49142" lon="4.59442">
        <ele>434.81689202213</ele>
        <time>2022-04-03T11:01:28.834Z</time>
      </trkpt>
      <trkpt lat="45.49176" lon="4.59486">
        <ele>436.6424976959</ele>
        <time>2022-04-03T11:01:29.213Z</time>
      </trkpt>
      <trkpt lat="45.49191" lon="4.59506">
        <ele>438.46457763568</ele>
        <time>2022-04-03T11:01:29.596Z</time>
      </trkpt>
      <trkpt lat="45.49198" lon="4.59521">
        <ele>440.29117588291</ele>
        <time>2022-04-03T11:01:29.982Z</time>
      </trkpt>
      <trkpt lat="45.49216" lon="4.59556">
        <ele>442.2244190978</ele>
        <time>2022-04-03T11:01:30.374Z</time>
      </trkpt>
      <trkpt lat="45.4922" lon="4.59566">
        <ele>443.94427611044</ele>
        <time>2022-04-03T11:01:30.768Z</time>
      </trkpt>
      <trkpt lat="45.4924" lon="4.59597">
        <ele>445.61219656918</ele>
        <time>2022-04-03T11:01:31.167Z</time>
      </trkpt>
      <trkpt lat="45.49267" lon="4.59624">
        <ele>448.68491333329</ele>
        <time>2022-04-03T11:01:31.972Z</time>
      </trkpt>
      <trkpt lat="45.49278" lon="4.59639">
        <ele>450.17685609871</ele>
        <time>2022-04-03T11:01:32.381Z</time>
      </trkpt>
      <trkpt lat="45.49279" lon="4.59646">
        <ele>451.63173851154</ele>
        <time>2022-04-03T11:01:32.791Z</time>
      </trkpt>
      <trkpt lat="45.49286" lon="4.59682">
        <ele>453.16350314751</ele>
        <time>2022-04-03T11:01:33.206Z</time>
      </trkpt>
      <trkpt lat="45.49288" lon="4.59689">
        <ele>454.52477021632</ele>
        <time>2022-04-03T11:01:33.622Z</time>
      </trkpt>
      <trkpt lat="45.49286" lon="4.59697">
        <ele>455.81699179423</ele>
        <time>2022-04-03T11:01:34.040Z</time>
      </trkpt>
      <trkpt lat="45.49287" lon="4.59741">
        <ele>457.15826438702</ele>
        <time>2022-04-03T11:01:34.464Z</time>
      </trkpt>
      <trkpt lat="45.49295" lon="4.59747">
        <ele>458.13935463755</ele>
        <time>2022-04-03T11:01:34.889Z</time>
      </trkpt>
      <trkpt lat="45.49301" lon="4.59762">
        <ele>458.90604015086</ele>
        <time>2022-04-03T11:01:35.317Z</time>
      </trkpt>
      <trkpt lat="45.49305" lon="4.59765">
        <ele>459.43259135754</ele>
        <time>2022-04-03T11:01:35.746Z</time>
      </trkpt>
      <trkpt lat="45.49313" lon="4.59765">
        <ele>459.68533021018</ele>
        <time>2022-04-03T11:01:36.176Z</time>
      </trkpt>
      <trkpt lat="45.49316" lon="4.59762">
        <ele>459.67210340218</ele>
        <time>2022-04-03T11:01:36.607Z</time>
      </trkpt>
      <trkpt lat="45.49324" lon="4.59762">
        <ele>459.31737567993</ele>
        <time>2022-04-03T11:01:37.040Z</time>
      </trkpt>
      <trkpt lat="45.4933" lon="4.59755">
        <ele>458.6359295309</ele>
        <time>2022-04-03T11:01:37.474Z</time>
      </trkpt>
      <trkpt lat="45.49329" lon="4.59751">
        <ele>457.63741798527</ele>
        <time>2022-04-03T11:01:37.909Z</time>
      </trkpt>
      <trkpt lat="45.49333" lon="4.59736">
        <ele>456.21753660781</ele>
        <time>2022-04-03T11:01:38.346Z</time>
      </trkpt>
      <trkpt lat="45.4937" lon="4.59739">
        <ele>454.24722210577</ele>
        <time>2022-04-03T11:01:38.791Z</time>
      </trkpt>
      <trkpt lat="45.49374" lon="4.59745">
        <ele>452.09053713408</ele>
        <time>2022-04-03T11:01:39.237Z</time>
      </trkpt>
      <trkpt lat="45.49392" lon="4.59757">
        <ele>449.50772110385</ele>
        <time>2022-04-03T11:01:39.687Z</time>
      </trkpt>
      <trkpt lat="45.49402" lon="4.59764">
        <ele>446.54281114893</ele>
        <time>2022-04-03T11:01:40.139Z</time>
      </trkpt>
      <trkpt lat="45.49451" lon="4.59793">
        <ele>443.00428795253</ele>
        <time>2022-04-03T11:01:40.602Z</time>
      </trkpt>
      <trkpt lat="45.49507" lon="4.59826">
        <ele>438.8730513781</ele>
        <time>2022-04-03T11:01:41.077Z</time>
      </trkpt>
      <trkpt lat="45.49509" lon="4.5988">
        <ele>434.78143034916</ele>
        <time>2022-04-03T11:01:41.559Z</time>
      </trkpt>
      <trkpt lat="45.49516" lon="4.59906">
        <ele>430.58106463035</ele>
        <time>2022-04-03T11:01:42.045Z</time>
      </trkpt>
      <trkpt lat="45.49536" lon="4.59978">
        <ele>425.91231628697</ele>
        <time>2022-04-03T11:01:42.542Z</time>
      </trkpt>
      <trkpt lat="45.49546" lon="4.60041">
        <ele>421.18777091012</ele>
        <time>2022-04-03T11:01:43.048Z</time>
      </trkpt>
      <trkpt lat="45.49547" lon="4.60058">
        <ele>416.7149277072</ele>
        <time>2022-04-03T11:01:43.557Z</time>
      </trkpt>
      <trkpt lat="45.49541" lon="4.60115">
        <ele>412.15929906044</ele>
        <time>2022-04-03T11:01:44.074Z</time>
      </trkpt>
      <trkpt lat="45.4954" lon="4.6018">
        <ele>407.78347980555</ele>
        <time>2022-04-03T11:01:44.600Z</time>
      </trkpt>
      <trkpt lat="45.49488" lon="4.60188">
        <ele>403.61591291626</ele>
        <time>2022-04-03T11:01:45.136Z</time>
      </trkpt>
      <trkpt lat="45.49461" lon="4.60199">
        <ele>399.7054711465</ele>
        <time>2022-04-03T11:01:45.678Z</time>
      </trkpt>
      <trkpt lat="45.49435" lon="4.60222">
        <ele>395.95701557866</ele>
        <time>2022-04-03T11:01:46.226Z</time>
      </trkpt>
      <trkpt lat="45.49421" lon="4.60232">
        <ele>392.7045607568</ele>
        <time>2022-04-03T11:01:46.777Z</time>
      </trkpt>
      <trkpt lat="45.49387" lon="4.6023">
        <ele>387.52008177179</ele>
        <time>2022-04-03T11:01:47.886Z</time>
      </trkpt>
      <trkpt lat="45.49385" lon="4.60236">
        <ele>385.43306194037</ele>
        <time>2022-04-03T11:01:48.445Z</time>
      </trkpt>
      <trkpt lat="45.49383" lon="4.60237">
        <ele>383.74325756423</ele>
        <time>2022-04-03T11:01:49.004Z</time>
      </trkpt>
      <trkpt lat="45.4937" lon="4.60235">
        <ele>382.39782977748</ele>
        <time>2022-04-03T11:01:49.566Z</time>
      </trkpt>
      <trkpt lat="45.49356" lon="4.60246">
        <ele>381.29173501481</ele>
        <time>2022-04-03T11:01:50.131Z</time>
      </trkpt>
      <trkpt lat="45.49348" lon="4.60249">
        <ele>380.5478426746</ele>
        <time>2022-04-03T11:01:50.698Z</time>
      </trkpt>
      <trkpt lat="45.49345" lon="4.60257">
        <ele>380.09187915123</ele>
        <time>2022-04-03T11:01:51.266Z</time>
      </trkpt>
      <trkpt lat="45.49347" lon="4.60262">
        <ele>379.96804547022</ele>
        <time>2022-04-03T11:01:51.835Z</time>
      </trkpt>
      <trkpt lat="45.49369" lon="4.60275">
        <ele>380.11935556904</ele>
        <time>2022-04-03T11:01:52.409Z</time>
      </trkpt>
      <trkpt lat="45.49397" lon="4.603">
        <ele>380.6172743097</ele>
        <time>2022-04-03T11:01:52.989Z</time>
      </trkpt>
      <trkpt lat="45.49423" lon="4.60315">
        <ele>381.42390584772</ele>
        <time>2022-04-03T11:01:53.575Z</time>
      </trkpt>
      <trkpt lat="45.49462" lon="4.60352">
        <ele>382.67702939841</ele>
        <time>2022-04-03T11:01:54.170Z</time>
      </trkpt>
      <trkpt lat="45.49544" lon="4.60407">
        <ele>384.11864979528</ele>
        <time>2022-04-03T11:01:54.783Z</time>
      </trkpt>
      <trkpt lat="45.4958" lon="4.60414">
        <ele>385.78606028819</ele>
        <time>2022-04-03T11:01:55.404Z</time>
      </trkpt>
      <trkpt lat="45.49624" lon="4.60432">
        <ele>387.9259955262</ele>
        <time>2022-04-03T11:01:56.034Z</time>
      </trkpt>
      <trkpt lat="45.49656" lon="4.60468">
        <ele>390.6329087828</ele>
        <time>2022-04-03T11:01:56.672Z</time>
      </trkpt>
      <trkpt lat="45.49724" lon="4.60569">
        <ele>394.06811606873</ele>
        <time>2022-04-03T11:01:57.330Z</time>
      </trkpt>
      <trkpt lat="45.49739" lon="4.60574">
        <ele>396.96520383588</ele>
        <time>2022-04-03T11:01:57.991Z</time>
      </trkpt>
      <trkpt lat="45.49768" lon="4.60634">
        <ele>403.28306285487</ele>
        <time>2022-04-03T11:01:59.323Z</time>
      </trkpt>
      <trkpt lat="45.49785" lon="4.60661">
        <ele>406.34902347416</ele>
        <time>2022-04-03T11:01:59.999Z</time>
      </trkpt>
      <trkpt lat="45.4979" lon="4.6068">
        <ele>409.39161970949</ele>
        <time>2022-04-03T11:02:00.678Z</time>
      </trkpt>
      <trkpt lat="45.49796" lon="4.60694">
        <ele>412.29810368519</ele>
        <time>2022-04-03T11:02:01.359Z</time>
      </trkpt>
      <trkpt lat="45.49804" lon="4.60707">
        <ele>415.09720819696</ele>
        <time>2022-04-03T11:02:02.043Z</time>
      </trkpt>
      <trkpt lat="45.49824" lon="4.60724">
        <ele>417.71529208602</ele>
        <time>2022-04-03T11:02:02.731Z</time>
      </trkpt>
      <trkpt lat="45.49837" lon="4.60739">
        <ele>420.17808744146</ele>
        <time>2022-04-03T11:02:03.423Z</time>
      </trkpt>
      <trkpt lat="45.49847" lon="4.60761">
        <ele>422.51088241959</ele>
        <time>2022-04-03T11:02:04.118Z</time>
      </trkpt>
      <trkpt lat="45.49849" lon="4.60771">
        <ele>424.60979598903</ele>
        <time>2022-04-03T11:02:04.815Z</time>
      </trkpt>
      <trkpt lat="45.4985" lon="4.60807">
        <ele>426.63517731614</ele>
        <time>2022-04-03T11:02:05.517Z</time>
      </trkpt>
      <trkpt lat="45.49861" lon="4.60894">
        <ele>428.46100138691</ele>
        <time>2022-04-03T11:02:06.231Z</time>
      </trkpt>
      <trkpt lat="45.49869" lon="4.60929">
        <ele>429.95804931253</ele>
        <time>2022-04-03T11:02:06.950Z</time>
      </trkpt>
      <trkpt lat="45.49876" lon="4.60957">
        <ele>431.11411209407</ele>
        <time>2022-04-03T11:02:07.674Z</time>
      </trkpt>
      <trkpt lat="45.49897" lon="4.61003">
        <ele>431.93550654741</ele>
        <time>2022-04-03T11:02:08.405Z</time>
      </trkpt>
      <trkpt lat="45.49915" lon="4.61028">
        <ele>432.47176818143</ele>
        <time>2022-04-03T11:02:09.141Z</time>
      </trkpt>
      <trkpt lat="45.49931" lon="4.61044">
        <ele>432.71517398209</ele>
        <time>2022-04-03T11:02:09.881Z</time>
      </trkpt>
      <trkpt lat="45.49944" lon="4.61064">
        <ele>432.83194477763</ele>
        <time>2022-04-03T11:02:10.625Z</time>
      </trkpt>
      <trkpt lat="45.49958" lon="4.61097">
        <ele>432.76561810371</ele>
        <time>2022-04-03T11:02:12.119Z</time>
      </trkpt>
      <trkpt lat="45.49964" lon="4.61105">
        <ele>432.51938110555</ele>
        <time>2022-04-03T11:02:12.870Z</time>
      </trkpt>
      <trkpt lat="45.4997" lon="4.61112">
        <ele>431.81480040614</ele>
        <time>2022-04-03T11:02:14.374Z</time>
      </trkpt>
      <trkpt lat="45.49973" lon="4.61131">
        <ele>431.344319979</ele>
        <time>2022-04-03T11:02:15.129Z</time>
      </trkpt>
      <trkpt lat="45.49973" lon="4.61147">
        <ele>430.80431080807</ele>
        <time>2022-04-03T11:02:15.887Z</time>
      </trkpt>
      <trkpt lat="45.49965" lon="4.61194">
        <ele>430.33017114117</ele>
        <time>2022-04-03T11:02:16.651Z</time>
      </trkpt>
      <trkpt lat="45.49965" lon="4.61205">
        <ele>429.51412865196</ele>
        <time>2022-04-03T11:02:17.417Z</time>
      </trkpt>
      <trkpt lat="45.49975" lon="4.61226">
        <ele>428.39579699983</ele>
        <time>2022-04-03T11:02:18.187Z</time>
      </trkpt>
      <trkpt lat="45.4999" lon="4.61235">
        <ele>427.03566117275</ele>
        <time>2022-04-03T11:02:18.960Z</time>
      </trkpt>
      <trkpt lat="45.50045" lon="4.61253">
        <ele>425.47925593846</ele>
        <time>2022-04-03T11:02:19.744Z</time>
      </trkpt>
      <trkpt lat="45.50066" lon="4.61253">
        <ele>423.88839417523</ele>
        <time>2022-04-03T11:02:20.532Z</time>
      </trkpt>
      <trkpt lat="45.50082" lon="4.6125">
        <ele>422.18329723481</ele>
        <time>2022-04-03T11:02:21.324Z</time>
      </trkpt>
      <trkpt lat="45.50098" lon="4.61253">
        <ele>420.41634170832</ele>
        <time>2022-04-03T11:02:22.119Z</time>
      </trkpt>
      <trkpt lat="45.50109" lon="4.61261">
        <ele>418.69360277697</ele>
        <time>2022-04-03T11:02:22.916Z</time>
      </trkpt>
      <trkpt lat="45.50149" lon="4.61295">
        <ele>416.82380544112</ele>
        <time>2022-04-03T11:02:23.723Z</time>
      </trkpt>
      <trkpt lat="45.50209" lon="4.61346">
        <ele>415.110366916</ele>
        <time>2022-04-03T11:02:24.544Z</time>
      </trkpt>
      <trkpt lat="45.5038" lon="4.61497">
        <ele>413.43937289169</ele>
        <time>2022-04-03T11:02:25.405Z</time>
      </trkpt>
      <trkpt lat="45.50403" lon="4.6152">
        <ele>412.34779336633</ele>
        <time>2022-04-03T11:02:26.272Z</time>
      </trkpt>
      <trkpt lat="45.50408" lon="4.61546">
        <ele>411.77208810796</ele>
        <time>2022-04-03T11:02:27.142Z</time>
      </trkpt>
      <trkpt lat="45.50424" lon="4.61581">
        <ele>411.55007580607</ele>
        <time>2022-04-03T11:02:28.018Z</time>
      </trkpt>
      <trkpt lat="45.50451" lon="4.61649">
        <ele>411.87507950474</ele>
        <time>2022-04-03T11:02:28.905Z</time>
      </trkpt>
      <trkpt lat="45.50465" lon="4.6167">
        <ele>412.15939930503</ele>
        <time>2022-04-03T11:02:29.796Z</time>
      </trkpt>
      <trkpt lat="45.50496" lon="4.6171">
        <ele>412.63658445689</ele>
        <time>2022-04-03T11:02:30.696Z</time>
      </trkpt>
      <trkpt lat="45.5051" lon="4.61733">
        <ele>413.30319604914</ele>
        <time>2022-04-03T11:02:31.600Z</time>
      </trkpt>
      <trkpt lat="45.50517" lon="4.61751">
        <ele>414.1097091399</ele>
        <time>2022-04-03T11:02:32.507Z</time>
      </trkpt>
      <trkpt lat="45.50524" lon="4.61788">
        <ele>415.07130354531</ele>
        <time>2022-04-03T11:02:33.419Z</time>
      </trkpt>
      <trkpt lat="45.50531" lon="4.61808">
        <ele>415.93375022601</ele>
        <time>2022-04-03T11:02:34.334Z</time>
      </trkpt>
      <trkpt lat="45.50519" lon="4.61817">
        <ele>417.50892969459</ele>
        <time>2022-04-03T11:02:36.167Z</time>
      </trkpt>
      <trkpt lat="45.50509" lon="4.61881">
        <ele>418.13732791693</ele>
        <time>2022-04-03T11:02:37.094Z</time>
      </trkpt>
      <trkpt lat="45.50503" lon="4.61903">
        <ele>418.49429748763</ele>
        <time>2022-04-03T11:02:38.024Z</time>
      </trkpt>
      <trkpt lat="45.50505" lon="4.61904">
        <ele>418.44361564843</ele>
        <time>2022-04-03T11:02:39.885Z</time>
      </trkpt>
      <trkpt lat="45.50478" lon="4.61996">
        <ele>418.16906493905</ele>
        <time>2022-04-03T11:02:40.830Z</time>
      </trkpt>
      <trkpt lat="45.50507" lon="4.62155">
        <ele>417.08545919677</ele>
        <time>2022-04-03T11:02:41.798Z</time>
      </trkpt>
      <trkpt lat="45.50502" lon="4.62186">
        <ele>416.24480111945</ele>
        <time>2022-04-03T11:02:42.770Z</time>
      </trkpt>
      <trkpt lat="45.50506" lon="4.62187">
        <ele>415.27685867784</ele>
        <time>2022-04-03T11:02:43.743Z</time>
      </trkpt>
      <trkpt lat="45.50506" lon="4.62192">
        <ele>414.21771181213</ele>
        <time>2022-04-03T11:02:44.717Z</time>
      </trkpt>
      <trkpt lat="45.50527" lon="4.62186">
        <ele>412.94744560613</ele>
        <time>2022-04-03T11:02:45.695Z</time>
      </trkpt>
      <trkpt lat="45.50496" lon="4.62229">
        <ele>411.87606129325</ele>
        <time>2022-04-03T11:02:46.682Z</time>
      </trkpt>
      <trkpt lat="45.50465" lon="4.62271">
        <ele>410.52846121211</ele>
        <time>2022-04-03T11:02:47.678Z</time>
      </trkpt>
      <trkpt lat="45.50453" lon="4.62281">
        <ele>409.33112439667</ele>
        <time>2022-04-03T11:02:48.676Z</time>
      </trkpt>
      <trkpt lat="45.50436" lon="4.62286">
        <ele>408.17961461827</ele>
        <time>2022-04-03T11:02:49.678Z</time>
      </trkpt>
      <trkpt lat="45.50424" lon="4.62293">
        <ele>407.03313217802</ele>
        <time>2022-04-03T11:02:50.682Z</time>
      </trkpt>
      <trkpt lat="45.50414" lon="4.62306">
        <ele>405.88335799051</ele>
        <time>2022-04-03T11:02:51.689Z</time>
      </trkpt>
      <trkpt lat="45.50405" lon="4.62319">
        <ele>404.67991652675</ele>
        <time>2022-04-03T11:02:52.699Z</time>
      </trkpt>
      <trkpt lat="45.50397" lon="4.62341">
        <ele>403.50910312646</ele>
        <time>2022-04-03T11:02:53.712Z</time>
      </trkpt>
      <trkpt lat="45.5039" lon="4.62376">
        <ele>402.23460498401</ele>
        <time>2022-04-03T11:02:54.730Z</time>
      </trkpt>
      <trkpt lat="45.50385" lon="4.62403">
        <ele>400.97490173623</ele>
        <time>2022-04-03T11:02:55.752Z</time>
      </trkpt>
      <trkpt lat="45.50326" lon="4.62522">
        <ele>399.75615890628</ele>
        <time>2022-04-03T11:02:56.795Z</time>
      </trkpt>
      <trkpt lat="45.50273" lon="4.62621">
        <ele>398.3450418783</ele>
        <time>2022-04-03T11:02:57.855Z</time>
      </trkpt>
      <trkpt lat="45.50256" lon="4.62646">
        <ele>396.78770239244</ele>
        <time>2022-04-03T11:02:58.920Z</time>
      </trkpt>
      <trkpt lat="45.50239" lon="4.62663">
        <ele>395.22840470638</ele>
        <time>2022-04-03T11:02:59.989Z</time>
      </trkpt>
      <trkpt lat="45.50189" lon="4.62701">
        <ele>393.5556113544</ele>
        <time>2022-04-03T11:03:01.070Z</time>
      </trkpt>
      <trkpt lat="45.50159" lon="4.62737">
        <ele>391.59711616666</ele>
        <time>2022-04-03T11:03:02.158Z</time>
      </trkpt>
      <trkpt lat="45.50133" lon="4.62757">
        <ele>389.51634146102</ele>
        <time>2022-04-03T11:03:03.252Z</time>
      </trkpt>
      <trkpt lat="45.50078" lon="4.62771">
        <ele>387.25196109928</ele>
        <time>2022-04-03T11:03:04.358Z</time>
      </trkpt>
      <trkpt lat="45.50055" lon="4.62772">
        <ele>385.02304418204</ele>
        <time>2022-04-03T11:03:05.468Z</time>
      </trkpt>
      <trkpt lat="45.50007" lon="4.62756">
        <ele>382.79214959324</ele>
        <time>2022-04-03T11:03:06.588Z</time>
      </trkpt>
      <trkpt lat="45.49973" lon="4.62752">
        <ele>380.69006950833</ele>
        <time>2022-04-03T11:03:07.715Z</time>
      </trkpt>
      <trkpt lat="45.49959" lon="4.62751">
        <ele>376.84437528482</ele>
        <time>2022-04-03T11:03:09.972Z</time>
      </trkpt>
      <trkpt lat="45.49942" lon="4.62744">
        <ele>375.02845649516</ele>
        <time>2022-04-03T11:03:11.105Z</time>
      </trkpt>
      <trkpt lat="45.49928" lon="4.62734">
        <ele>373.3182918052</ele>
        <time>2022-04-03T11:03:12.241Z</time>
      </trkpt>
      <trkpt lat="45.49914" lon="4.62718">
        <ele>371.73952109708</ele>
        <time>2022-04-03T11:03:13.381Z</time>
      </trkpt>
      <trkpt lat="45.49904" lon="4.62696">
        <ele>370.31923408677</ele>
        <time>2022-04-03T11:03:14.525Z</time>
      </trkpt>
      <trkpt lat="45.4989" lon="4.62648">
        <ele>368.9834723006</ele>
        <time>2022-04-03T11:03:15.676Z</time>
      </trkpt>
      <trkpt lat="45.49881" lon="4.6263">
        <ele>367.69854536242</ele>
        <time>2022-04-03T11:03:16.830Z</time>
      </trkpt>
      <trkpt lat="45.49848" lon="4.62604">
        <ele>366.33002111848</ele>
        <time>2022-04-03T11:03:17.991Z</time>
      </trkpt>
      <trkpt lat="45.4984" lon="4.62603">
        <ele>365.04697518319</ele>
        <time>2022-04-03T11:03:19.154Z</time>
      </trkpt>
      <trkpt lat="45.49831" lon="4.6261">
        <ele>363.71444288994</ele>
        <time>2022-04-03T11:03:20.319Z</time>
      </trkpt>
      <trkpt lat="45.4983" lon="4.62621">
        <ele>361.61798516378</ele>
        <time>2022-04-03T11:03:22.651Z</time>
      </trkpt>
      <trkpt lat="45.49838" lon="4.62638">
        <ele>360.72926293488</ele>
        <time>2022-04-03T11:03:23.821Z</time>
      </trkpt>
      <trkpt lat="45.49864" lon="4.62663">
        <ele>360.10000577626</ele>
        <time>2022-04-03T11:03:24.997Z</time>
      </trkpt>
      <trkpt lat="45.49869" lon="4.6268">
        <ele>359.39323096492</ele>
        <time>2022-04-03T11:03:26.176Z</time>
      </trkpt>
      <trkpt lat="45.4987" lon="4.62697">
        <ele>358.7815187328</ele>
        <time>2022-04-03T11:03:27.357Z</time>
      </trkpt>
      <trkpt lat="45.49867" lon="4.62757">
        <ele>358.05897294011</ele>
        <time>2022-04-03T11:03:28.546Z</time>
      </trkpt>
      <trkpt lat="45.49862" lon="4.62772">
        <ele>357.75412110509</ele>
        <time>2022-04-03T11:03:29.738Z</time>
      </trkpt>
      <trkpt lat="45.49856" lon="4.62778">
        <ele>357.59296711542</ele>
        <time>2022-04-03T11:03:30.931Z</time>
      </trkpt>
      <trkpt lat="45.49803" lon="4.6291">
        <ele>357.50463618841</ele>
        <time>2022-04-03T11:03:32.146Z</time>
      </trkpt>
      <trkpt lat="45.49856" lon="4.62778">
        <ele>357.73384082779</ele>
        <time>2022-04-03T11:03:34.597Z</time>
      </trkpt>
      <trkpt lat="45.49862" lon="4.62772">
        <ele>357.8609164386</ele>
        <time>2022-04-03T11:03:35.834Z</time>
      </trkpt>
      <trkpt lat="45.49867" lon="4.62757">
        <ele>358.00890018483</ele>
        <time>2022-04-03T11:03:37.074Z</time>
      </trkpt>
      <trkpt lat="45.49857" lon="4.62712">
        <ele>358.26981526489</ele>
        <time>2022-04-03T11:03:38.320Z</time>
      </trkpt>
      <trkpt lat="45.49853" lon="4.62701">
        <ele>358.48174851003</ele>
        <time>2022-04-03T11:03:39.568Z</time>
      </trkpt>
      <trkpt lat="45.49827" lon="4.62661">
        <ele>358.62884576207</ele>
        <time>2022-04-03T11:03:40.824Z</time>
      </trkpt>
      <trkpt lat="45.49815" lon="4.62624">
        <ele>358.94450785871</ele>
        <time>2022-04-03T11:03:42.085Z</time>
      </trkpt>
      <trkpt lat="45.4981" lon="4.62615">
        <ele>359.19007051165</ele>
        <time>2022-04-03T11:03:43.348Z</time>
      </trkpt>
      <trkpt lat="45.49768" lon="4.62557">
        <ele>359.66299653189</ele>
        <time>2022-04-03T11:03:44.623Z</time>
      </trkpt>
      <trkpt lat="45.49761" lon="4.6255">
        <ele>359.90385983356</ele>
        <time>2022-04-03T11:03:45.899Z</time>
      </trkpt>
      <trkpt lat="45.49755" lon="4.62547">
        <ele>360.11218380381</ele>
        <time>2022-04-03T11:03:47.177Z</time>
      </trkpt>
      <trkpt lat="45.49731" lon="4.62542">
        <ele>359.998760027</ele>
        <time>2022-04-03T11:03:48.460Z</time>
      </trkpt>
      <trkpt lat="45.49723" lon="4.62534">
        <ele>360.10227578762</ele>
        <time>2022-04-03T11:03:49.745Z</time>
      </trkpt>
      <trkpt lat="45.49712" lon="4.62512">
        <ele>360.38838610064</ele>
        <time>2022-04-03T11:03:51.033Z</time>
      </trkpt>
      <trkpt lat="45.49703" lon="4.62497">
        <ele>360.61797439937</ele>
        <time>2022-04-03T11:03:52.324Z</time>
      </trkpt>
      <trkpt lat="45.49693" lon="4.62461">
        <ele>361.0010638319</ele>
        <time>2022-04-03T11:03:53.621Z</time>
      </trkpt>
      <trkpt lat="45.49688" lon="4.62455">
        <ele>361.20308346662</ele>
        <time>2022-04-03T11:03:54.919Z</time>
      </trkpt>
      <trkpt lat="45.49684" lon="4.62453">
        <ele>361.33726902566</ele>
        <time>2022-04-03T11:03:56.218Z</time>
      </trkpt>
      <trkpt lat="45.49677" lon="4.62455">
        <ele>361.4135225549</ele>
        <time>2022-04-03T11:03:57.518Z</time>
      </trkpt>
      <trkpt lat="45.49671" lon="4.62463">
        <ele>361.35252831765</ele>
        <time>2022-04-03T11:03:58.820Z</time>
      </trkpt>
      <trkpt lat="45.49658" lon="4.62495">
        <ele>361.01862105443</ele>
        <time>2022-04-03T11:04:00.127Z</time>
      </trkpt>
      <trkpt lat="45.49652" lon="4.62502">
        <ele>360.94327121672</ele>
        <time>2022-04-03T11:04:01.436Z</time>
      </trkpt>
      <trkpt lat="45.49642" lon="4.62503">
        <ele>360.89467373578</ele>
        <time>2022-04-03T11:04:02.747Z</time>
      </trkpt>
      <trkpt lat="45.49589" lon="4.62484">
        <ele>361.08462807496</ele>
        <time>2022-04-03T11:04:04.069Z</time>
      </trkpt>
      <trkpt lat="45.49578" lon="4.62484">
        <ele>360.99878830622</ele>
        <time>2022-04-03T11:04:05.393Z</time>
      </trkpt>
      <trkpt lat="45.49543" lon="4.62488">
        <ele>360.78533629222</ele>
        <time>2022-04-03T11:04:06.724Z</time>
      </trkpt>
      <trkpt lat="45.49533" lon="4.62485">
        <ele>360.67124310194</ele>
        <time>2022-04-03T11:04:08.057Z</time>
      </trkpt>
      <trkpt lat="45.49516" lon="4.62474">
        <ele>360.54398040104</ele>
        <time>2022-04-03T11:04:09.394Z</time>
      </trkpt>
      <trkpt lat="45.49502" lon="4.62466">
        <ele>360.34221832871</ele>
        <time>2022-04-03T11:04:10.734Z</time>
      </trkpt>
      <trkpt lat="45.49479" lon="4.62463">
        <ele>360.06944334563</ele>
        <time>2022-04-03T11:04:12.078Z</time>
      </trkpt>
      <trkpt lat="45.49472" lon="4.62459">
        <ele>359.84857529158</ele>
        <time>2022-04-03T11:04:13.424Z</time>
      </trkpt>
      <trkpt lat="45.49452" lon="4.62407">
        <ele>359.68737402595</ele>
        <time>2022-04-03T11:04:14.778Z</time>
      </trkpt>
      <trkpt lat="45.49445" lon="4.62397">
        <ele>359.42206776506</ele>
        <time>2022-04-03T11:04:16.134Z</time>
      </trkpt>
      <trkpt lat="45.49437" lon="4.62356">
        <ele>359.14899851206</ele>
        <time>2022-04-03T11:04:17.496Z</time>
      </trkpt>
      <trkpt lat="45.49437" lon="4.62322">
        <ele>359.13839895091</ele>
        <time>2022-04-03T11:04:18.863Z</time>
      </trkpt>
      <trkpt lat="45.49432" lon="4.62306">
        <ele>358.90497513209</ele>
        <time>2022-04-03T11:04:20.232Z</time>
      </trkpt>
      <trkpt lat="45.49426" lon="4.62297">
        <ele>358.61090732752</ele>
        <time>2022-04-03T11:04:21.603Z</time>
      </trkpt>
      <trkpt lat="45.49419" lon="4.62296">
        <ele>358.25964407968</ele>
        <time>2022-04-03T11:04:22.975Z</time>
      </trkpt>
      <trkpt lat="45.49414" lon="4.62297">
        <ele>357.89631168718</ele>
        <time>2022-04-03T11:04:24.349Z</time>
      </trkpt>
      <trkpt lat="45.49408" lon="4.62303">
        <ele>357.45044439369</ele>
        <time>2022-04-03T11:04:25.724Z</time>
      </trkpt>
      <trkpt lat="45.49389" lon="4.62355">
        <ele>356.52337998463</ele>
        <time>2022-04-03T11:04:27.107Z</time>
      </trkpt>
      <trkpt lat="45.49385" lon="4.6236">
        <ele>356.183168269</ele>
        <time>2022-04-03T11:04:28.491Z</time>
      </trkpt>
      <trkpt lat="45.49374" lon="4.62363">
        <ele>355.87628069525</ele>
        <time>2022-04-03T11:04:29.878Z</time>
      </trkpt>
      <trkpt lat="45.49349" lon="4.62361">
        <ele>355.61224305394</ele>
        <time>2022-04-03T11:04:31.269Z</time>
      </trkpt>
      <trkpt lat="45.49323" lon="4.62368">
        <ele>355.40016210626</ele>
        <time>2022-04-03T11:04:32.666Z</time>
      </trkpt>
      <trkpt lat="45.49315" lon="4.62367">
        <ele>355.24867211804</ele>
        <time>2022-04-03T11:04:34.064Z</time>
      </trkpt>
      <trkpt lat="45.49309" lon="4.62362">
        <ele>355.16587844309</ele>
        <time>2022-04-03T11:04:35.464Z</time>
      </trkpt>
      <trkpt lat="45.49301" lon="4.62353">
        <ele>355.15929743965</ele>
        <time>2022-04-03T11:04:36.866Z</time>
      </trkpt>
      <trkpt lat="45.49272" lon="4.62308">
        <ele>355.82922715594</ele>
        <time>2022-04-03T11:04:38.276Z</time>
      </trkpt>
      <trkpt lat="45.49264" lon="4.62296">
        <ele>356.0276112288</ele>
        <time>2022-04-03T11:04:39.689Z</time>
      </trkpt>
      <trkpt lat="45.49255" lon="4.62293">
        <ele>356.25177490484</ele>
        <time>2022-04-03T11:04:41.104Z</time>
      </trkpt>
      <trkpt lat="45.49231" lon="4.62287">
        <ele>356.57372044132</ele>
        <time>2022-04-03T11:04:42.523Z</time>
      </trkpt>
      <trkpt lat="45.49219" lon="4.62281">
        <ele>356.9879261108</ele>
        <time>2022-04-03T11:04:43.945Z</time>
      </trkpt>
      <trkpt lat="45.49202" lon="4.62281">
        <ele>357.19980762291</ele>
        <time>2022-04-03T11:04:45.370Z</time>
      </trkpt>
      <trkpt lat="45.49185" lon="4.62296">
        <ele>357.70350623508</ele>
        <time>2022-04-03T11:04:46.799Z</time>
      </trkpt>
      <trkpt lat="45.49168" lon="4.62306">
        <ele>358.5410815204</ele>
        <time>2022-04-03T11:04:48.232Z</time>
      </trkpt>
      <trkpt lat="45.4915" lon="4.62313">
        <ele>359.52612273087</ele>
        <time>2022-04-03T11:04:49.669Z</time>
      </trkpt>
      <trkpt lat="45.49142" lon="4.62312">
        <ele>360.66368557806</ele>
        <time>2022-04-03T11:04:51.107Z</time>
      </trkpt>
      <trkpt lat="45.49131" lon="4.62308">
        <ele>362.03593225107</ele>
        <time>2022-04-03T11:04:52.548Z</time>
      </trkpt>
      <trkpt lat="45.4912" lon="4.62297">
        <ele>363.62250764097</ele>
        <time>2022-04-03T11:04:53.991Z</time>
      </trkpt>
      <trkpt lat="45.49111" lon="4.62285">
        <ele>365.34538483223</ele>
        <time>2022-04-03T11:04:55.437Z</time>
      </trkpt>
      <trkpt lat="45.49104" lon="4.62282">
        <ele>367.18696842585</ele>
        <time>2022-04-03T11:04:56.884Z</time>
      </trkpt>
      <trkpt lat="45.49097" lon="4.62282">
        <ele>369.14599779338</ele>
        <time>2022-04-03T11:04:58.333Z</time>
      </trkpt>
      <trkpt lat="45.49076" lon="4.6224">
        <ele>371.51940687546</ele>
        <time>2022-04-03T11:04:59.789Z</time>
      </trkpt>
      <trkpt lat="45.49063" lon="4.62227">
        <ele>373.87185954552</ele>
        <time>2022-04-03T11:05:01.248Z</time>
      </trkpt>
      <trkpt lat="45.49064" lon="4.62244">
        <ele>376.11408379932</ele>
        <time>2022-04-03T11:05:02.710Z</time>
      </trkpt>
      <trkpt lat="45.49064" lon="4.62282">
        <ele>378.50567699664</ele>
        <time>2022-04-03T11:05:04.177Z</time>
      </trkpt>
      <trkpt lat="45.49066" lon="4.62336">
        <ele>380.87970988529</ele>
        <time>2022-04-03T11:05:05.651Z</time>
      </trkpt>
      <trkpt lat="45.4906" lon="4.62362">
        <ele>383.42218055072</ele>
        <time>2022-04-03T11:05:07.129Z</time>
      </trkpt>
      <trkpt lat="45.49035" lon="4.62381">
        <ele>386.1872387721</ele>
        <time>2022-04-03T11:05:08.613Z</time>
      </trkpt>
      <trkpt lat="45.49007" lon="4.6239">
        <ele>389.38846204772</ele>
        <time>2022-04-03T11:05:10.103Z</time>
      </trkpt>
      <trkpt lat="45.48967" lon="4.62399">
        <ele>392.12861634356</ele>
        <time>2022-04-03T11:05:11.601Z</time>
      </trkpt>
      <trkpt lat="45.48937" lon="4.6241">
        <ele>394.56200992037</ele>
        <time>2022-04-03T11:05:13.105Z</time>
      </trkpt>
      <trkpt lat="45.48904" lon="4.62409">
        <ele>397.36225291459</ele>
        <time>2022-04-03T11:05:14.616Z</time>
      </trkpt>
      <trkpt lat="45.48885" lon="4.62411">
        <ele>400.03633899733</ele>
        <time>2022-04-03T11:05:16.130Z</time>
      </trkpt>
      <trkpt lat="45.48872" lon="4.62415">
        <ele>402.58091175669</ele>
        <time>2022-04-03T11:05:17.647Z</time>
      </trkpt>
      <trkpt lat="45.48851" lon="4.62414">
        <ele>405.18230359094</ele>
        <time>2022-04-03T11:05:19.168Z</time>
      </trkpt>
      <trkpt lat="45.48844" lon="4.62414">
        <ele>407.57839458017</ele>
        <time>2022-04-03T11:05:20.691Z</time>
      </trkpt>
      <trkpt lat="45.48832" lon="4.62418">
        <ele>409.85461421246</ele>
        <time>2022-04-03T11:05:22.216Z</time>
      </trkpt>
      <trkpt lat="45.4882" lon="4.62417">
        <ele>412.07516496047</ele>
        <time>2022-04-03T11:05:23.743Z</time>
      </trkpt>
      <trkpt lat="45.48808" lon="4.62413">
        <ele>414.22414281736</ele>
        <time>2022-04-03T11:05:25.273Z</time>
      </trkpt>
      <trkpt lat="45.48779" lon="4.624">
        <ele>416.3013557999</ele>
        <time>2022-04-03T11:05:26.809Z</time>
      </trkpt>
      <trkpt lat="45.48753" lon="4.62397">
        <ele>418.18518081777</ele>
        <time>2022-04-03T11:05:28.350Z</time>
      </trkpt>
      <trkpt lat="45.48717" lon="4.62389">
        <ele>420.08115266737</ele>
        <time>2022-04-03T11:05:29.899Z</time>
      </trkpt>
      <trkpt lat="45.48706" lon="4.6238">
        <ele>421.74600757196</ele>
        <time>2022-04-03T11:05:31.450Z</time>
      </trkpt>
      <trkpt lat="45.48701" lon="4.62382">
        <ele>423.02730808868</ele>
        <time>2022-04-03T11:05:33.002Z</time>
      </trkpt>
      <trkpt lat="45.48698" lon="4.62395">
        <ele>424.02101897318</ele>
        <time>2022-04-03T11:05:34.556Z</time>
      </trkpt>
      <trkpt lat="45.48699" lon="4.62402">
        <ele>424.80339092448</ele>
        <time>2022-04-03T11:05:36.111Z</time>
      </trkpt>
      <trkpt lat="45.48704" lon="4.62412">
        <ele>425.3266647985</ele>
        <time>2022-04-03T11:05:37.668Z</time>
      </trkpt>
      <trkpt lat="45.48706" lon="4.62417">
        <ele>425.71372682142</ele>
        <time>2022-04-03T11:05:39.226Z</time>
      </trkpt>
      <trkpt lat="45.48702" lon="4.62434">
        <ele>425.96741482052</ele>
        <time>2022-04-03T11:05:40.786Z</time>
      </trkpt>
      <trkpt lat="45.48695" lon="4.62485">
        <ele>426.0337752394</ele>
        <time>2022-04-03T11:05:42.353Z</time>
      </trkpt>
      <trkpt lat="45.48687" lon="4.625">
        <ele>425.98898540785</ele>
        <time>2022-04-03T11:05:43.923Z</time>
      </trkpt>
      <trkpt lat="45.48679" lon="4.62516">
        <ele>425.75805376333</ele>
        <time>2022-04-03T11:05:45.496Z</time>
      </trkpt>
      <trkpt lat="45.48668" lon="4.62527">
        <ele>425.35242274458</ele>
        <time>2022-04-03T11:05:47.071Z</time>
      </trkpt>
      <trkpt lat="45.48665" lon="4.62528">
        <ele>424.727337121</ele>
        <time>2022-04-03T11:05:48.647Z</time>
      </trkpt>
      <trkpt lat="45.48661" lon="4.62529">
        <ele>423.95355752571</ele>
        <time>2022-04-03T11:05:50.224Z</time>
      </trkpt>
      <trkpt lat="45.48653" lon="4.62525">
        <ele>423.08020692698</ele>
        <time>2022-04-03T11:05:51.803Z</time>
      </trkpt>
      <trkpt lat="45.48648" lon="4.6252">
        <ele>422.04095486895</ele>
        <time>2022-04-03T11:05:53.383Z</time>
      </trkpt>
      <trkpt lat="45.4864" lon="4.62541">
        <ele>420.78437900986</ele>
        <time>2022-04-03T11:05:54.966Z</time>
      </trkpt>
      <trkpt lat="45.48631" lon="4.62557">
        <ele>419.39374375929</ele>
        <time>2022-04-03T11:05:56.552Z</time>
      </trkpt>
      <trkpt lat="45.48615" lon="4.62571">
        <ele>417.92183609513</ele>
        <time>2022-04-03T11:05:58.142Z</time>
      </trkpt>
      <trkpt lat="45.48564" lon="4.62598">
        <ele>416.296541224</ele>
        <time>2022-04-03T11:05:59.743Z</time>
      </trkpt>
      <trkpt lat="45.4854" lon="4.62642">
        <ele>414.31383376657</ele>
        <time>2022-04-03T11:06:01.351Z</time>
      </trkpt>
      <trkpt lat="45.48501" lon="4.62683">
        <ele>412.41320360131</ele>
        <time>2022-04-03T11:06:02.969Z</time>
      </trkpt>
      <trkpt lat="45.48474" lon="4.62758">
        <ele>410.17506806401</ele>
        <time>2022-04-03T11:06:04.599Z</time>
      </trkpt>
      <trkpt lat="45.48433" lon="4.62789">
        <ele>408.40871109348</ele>
        <time>2022-04-03T11:06:06.238Z</time>
      </trkpt>
      <trkpt lat="45.48387" lon="4.62825">
        <ele>405.58328225839</ele>
        <time>2022-04-03T11:06:09.527Z</time>
      </trkpt>
      <trkpt lat="45.48374" lon="4.62838">
        <ele>404.22980514827</ele>
        <time>2022-04-03T11:06:11.180Z</time>
      </trkpt>
      <trkpt lat="45.48352" lon="4.62866">
        <ele>402.8507899358</ele>
        <time>2022-04-03T11:06:12.839Z</time>
      </trkpt>
      <trkpt lat="45.48345" lon="4.62876">
        <ele>401.86089634085</ele>
        <time>2022-04-03T11:06:14.500Z</time>
      </trkpt>
      <trkpt lat="45.48346" lon="4.62885">
        <ele>400.99766543346</ele>
        <time>2022-04-03T11:06:16.162Z</time>
      </trkpt>
      <trkpt lat="45.48345" lon="4.62893">
        <ele>400.31846553172</ele>
        <time>2022-04-03T11:06:17.825Z</time>
      </trkpt>
      <trkpt lat="45.4834" lon="4.62906">
        <ele>399.90956149388</ele>
        <time>2022-04-03T11:06:19.491Z</time>
      </trkpt>
      <trkpt lat="45.48326" lon="4.62926">
        <ele>399.7661656608</ele>
        <time>2022-04-03T11:06:21.160Z</time>
      </trkpt>
      <trkpt lat="45.48298" lon="4.62954">
        <ele>399.88344025354</ele>
        <time>2022-04-03T11:06:22.836Z</time>
      </trkpt>
      <trkpt lat="45.4827" lon="4.62988">
        <ele>400.2858988687</ele>
        <time>2022-04-03T11:06:24.520Z</time>
      </trkpt>
      <trkpt lat="45.48231" lon="4.63007">
        <ele>400.82930516726</ele>
        <time>2022-04-03T11:06:26.212Z</time>
      </trkpt>
      <trkpt lat="45.48192" lon="4.63009">
        <ele>401.47480042188</ele>
        <time>2022-04-03T11:06:27.912Z</time>
      </trkpt>
      <trkpt lat="45.48184" lon="4.63007">
        <ele>402.22548938788</ele>
        <time>2022-04-03T11:06:29.613Z</time>
      </trkpt>
      <trkpt lat="45.48184" lon="4.63013">
        <ele>403.17552709374</ele>
        <time>2022-04-03T11:06:31.315Z</time>
      </trkpt>
      <trkpt lat="45.48186" lon="4.63021">
        <ele>404.30385321991</ele>
        <time>2022-04-03T11:06:33.018Z</time>
      </trkpt>
      <trkpt lat="45.48199" lon="4.63035">
        <ele>405.59384797133</ele>
        <time>2022-04-03T11:06:34.725Z</time>
      </trkpt>
      <trkpt lat="45.48206" lon="4.63047">
        <ele>407.04075965758</ele>
        <time>2022-04-03T11:06:36.434Z</time>
      </trkpt>
      <trkpt lat="45.48212" lon="4.63071">
        <ele>408.68504011054</ele>
        <time>2022-04-03T11:06:38.146Z</time>
      </trkpt>
      <trkpt lat="45.4821" lon="4.63089">
        <ele>410.41753153389</ele>
        <time>2022-04-03T11:06:39.861Z</time>
      </trkpt>
      <trkpt lat="45.48203" lon="4.63104">
        <ele>412.20357114588</ele>
        <time>2022-04-03T11:06:41.578Z</time>
      </trkpt>
      <trkpt lat="45.48194" lon="4.6311">
        <ele>414.03631019151</ele>
        <time>2022-04-03T11:06:43.297Z</time>
      </trkpt>
      <trkpt lat="45.48179" lon="4.63116">
        <ele>417.87813211801</ele>
        <time>2022-04-03T11:06:46.738Z</time>
      </trkpt>
      <trkpt lat="45.48169" lon="4.63122">
        <ele>419.88055930429</ele>
        <time>2022-04-03T11:06:48.463Z</time>
      </trkpt>
      <trkpt lat="45.48159" lon="4.63171">
        <ele>421.88548249241</ele>
        <time>2022-04-03T11:06:50.195Z</time>
      </trkpt>
      <trkpt lat="45.48144" lon="4.63193">
        <ele>423.89644034008</ele>
        <time>2022-04-03T11:06:51.931Z</time>
      </trkpt>
      <trkpt lat="45.48124" lon="4.63209">
        <ele>425.93509623358</ele>
        <time>2022-04-03T11:06:53.672Z</time>
      </trkpt>
      <trkpt lat="45.4809" lon="4.63231">
        <ele>430.02076865703</ele>
        <time>2022-04-03T11:06:57.161Z</time>
      </trkpt>
      <trkpt lat="45.48064" lon="4.63243">
        <ele>432.18226442814</ele>
        <time>2022-04-03T11:06:58.915Z</time>
      </trkpt>
      <trkpt lat="45.48045" lon="4.63272">
        <ele>434.05647719671</ele>
        <time>2022-04-03T11:07:00.674Z</time>
      </trkpt>
      <trkpt lat="45.47999" lon="4.63315">
        <ele>436.361824698</ele>
        <time>2022-04-03T11:07:02.444Z</time>
      </trkpt>
      <trkpt lat="45.47971" lon="4.6338">
        <ele>438.15733400337</ele>
        <time>2022-04-03T11:07:04.225Z</time>
      </trkpt>
      <trkpt lat="45.47957" lon="4.63462">
        <ele>440.07394357111</ele>
        <time>2022-04-03T11:07:06.018Z</time>
      </trkpt>
      <trkpt lat="45.4797" lon="4.63539">
        <ele>441.47887838959</ele>
        <time>2022-04-03T11:07:07.822Z</time>
      </trkpt>
      <trkpt lat="45.4798" lon="4.63577">
        <ele>442.79397943733</ele>
        <time>2022-04-03T11:07:09.632Z</time>
      </trkpt>
      <trkpt lat="45.47995" lon="4.6362">
        <ele>443.93463233498</ele>
        <time>2022-04-03T11:07:11.448Z</time>
      </trkpt>
      <trkpt lat="45.4801" lon="4.63651">
        <ele>444.83126550676</ele>
        <time>2022-04-03T11:07:13.270Z</time>
      </trkpt>
      <trkpt lat="45.48016" lon="4.63687">
        <ele>445.70582516929</ele>
        <time>2022-04-03T11:07:15.097Z</time>
      </trkpt>
      <trkpt lat="45.48006" lon="4.63775">
        <ele>446.7018323675</ele>
        <time>2022-04-03T11:07:16.937Z</time>
      </trkpt>
      <trkpt lat="45.47971" lon="4.63852">
        <ele>447.21923173692</ele>
        <time>2022-04-03T11:07:18.789Z</time>
      </trkpt>
      <trkpt lat="45.47938" lon="4.63943">
        <ele>447.07086042263</ele>
        <time>2022-04-03T11:07:20.656Z</time>
      </trkpt>
      <trkpt lat="45.47858" lon="4.64">
        <ele>447.53004502252</ele>
        <time>2022-04-03T11:07:22.541Z</time>
      </trkpt>
      <trkpt lat="45.47782" lon="4.64021">
        <ele>447.59710373099</ele>
        <time>2022-04-03T11:07:24.441Z</time>
      </trkpt>
      <trkpt lat="45.47779" lon="4.64024">
        <ele>447.4046416594</ele>
        <time>2022-04-03T11:07:26.342Z</time>
      </trkpt>
      <trkpt lat="45.47776" lon="4.64029">
        <ele>447.04862151972</ele>
        <time>2022-04-03T11:07:28.244Z</time>
      </trkpt>
      <trkpt lat="45.47771" lon="4.64045">
        <ele>446.50479343632</ele>
        <time>2022-04-03T11:07:30.148Z</time>
      </trkpt>
      <trkpt lat="45.47783" lon="4.6408">
        <ele>445.65603620496</ele>
        <time>2022-04-03T11:07:32.058Z</time>
      </trkpt>
      <trkpt lat="45.47803" lon="4.64136">
        <ele>444.86195849951</ele>
        <time>2022-04-03T11:07:33.977Z</time>
      </trkpt>
      <trkpt lat="45.47809" lon="4.64166">
        <ele>444.18437663989</ele>
        <time>2022-04-03T11:07:35.900Z</time>
      </trkpt>
      <trkpt lat="45.47812" lon="4.6423">
        <ele>443.4433638631</ele>
        <time>2022-04-03T11:07:37.832Z</time>
      </trkpt>
      <trkpt lat="45.47841" lon="4.64393">
        <ele>442.47956078033</ele>
        <time>2022-04-03T11:07:39.788Z</time>
      </trkpt>
      <trkpt lat="45.47846" lon="4.64423">
        <ele>440.3371789196</ele>
        <time>2022-04-03T11:07:43.704Z</time>
      </trkpt>
      <trkpt lat="45.4785" lon="4.64478">
        <ele>439.07064446809</ele>
        <time>2022-04-03T11:07:45.672Z</time>
      </trkpt>
      <trkpt lat="45.47846" lon="4.6458">
        <ele>436.40940409754</ele>
        <time>2022-04-03T11:07:47.654Z</time>
      </trkpt>
      <trkpt lat="45.47843" lon="4.6462">
        <ele>435.19243297331</ele>
        <time>2022-04-03T11:07:49.642Z</time>
      </trkpt>
      <trkpt lat="45.47831" lon="4.64647">
        <ele>434.20801076157</ele>
        <time>2022-04-03T11:07:51.634Z</time>
      </trkpt>
      <trkpt lat="45.47824" lon="4.64663">
        <ele>432.12732945846</ele>
        <time>2022-04-03T11:07:55.621Z</time>
      </trkpt>
      <trkpt lat="45.47852" lon="4.64683">
        <ele>431.42270991895</ele>
        <time>2022-04-03T11:07:57.622Z</time>
      </trkpt>
      <trkpt lat="45.47857" lon="4.64687">
        <ele>431.16273941403</ele>
        <time>2022-04-03T11:07:59.624Z</time>
      </trkpt>
      <trkpt lat="45.47869" lon="4.64696">
        <ele>431.09072896619</ele>
        <time>2022-04-03T11:08:01.629Z</time>
      </trkpt>
      <trkpt lat="45.47879" lon="4.64702">
        <ele>431.27652943626</ele>
        <time>2022-04-03T11:08:03.636Z</time>
      </trkpt>
      <trkpt lat="45.47892" lon="4.64714">
        <ele>431.69711706212</ele>
        <time>2022-04-03T11:08:05.647Z</time>
      </trkpt>
      <trkpt lat="45.47762" lon="4.64886">
        <ele>432.91471489244</ele>
        <time>2022-04-03T11:08:07.693Z</time>
      </trkpt>
      <trkpt lat="45.47754" lon="4.649">
        <ele>433.76373348478</ele>
        <time>2022-04-03T11:08:09.742Z</time>
      </trkpt>
      <trkpt lat="45.47736" lon="4.64935">
        <ele>434.96089432183</ele>
        <time>2022-04-03T11:08:11.797Z</time>
      </trkpt>
      <trkpt lat="45.47705" lon="4.64986">
        <ele>436.25588082725</ele>
        <time>2022-04-03T11:08:13.861Z</time>
      </trkpt>
      <trkpt lat="45.47665" lon="4.65063">
        <ele>437.54713541366</ele>
        <time>2022-04-03T11:08:15.939Z</time>
      </trkpt>
      <trkpt lat="45.47659" lon="4.65106">
        <ele>439.34540204885</ele>
        <time>2022-04-03T11:08:18.023Z</time>
      </trkpt>
      <trkpt lat="45.47648" lon="4.65141">
        <ele>441.18797503046</ele>
        <time>2022-04-03T11:08:20.112Z</time>
      </trkpt>
      <trkpt lat="45.47597" lon="4.65299">
        <ele>443.36470856532</ele>
        <time>2022-04-03T11:08:22.226Z</time>
      </trkpt>
      <trkpt lat="45.4757" lon="4.65358">
        <ele>445.44828557103</ele>
        <time>2022-04-03T11:08:24.350Z</time>
      </trkpt>
      <trkpt lat="45.47562" lon="4.65376">
        <ele>449.79539195031</ele>
        <time>2022-04-03T11:08:26.477Z</time>
      </trkpt>
      <trkpt lat="45.47517" lon="4.65444">
        <ele>452.15838268577</ele>
        <time>2022-04-03T11:08:28.617Z</time>
      </trkpt>
      <trkpt lat="45.47478" lon="4.65535">
        <ele>454.85049207657</ele>
        <time>2022-04-03T11:08:30.772Z</time>
      </trkpt>
      <trkpt lat="45.47465" lon="4.65556">
        <ele>457.46481813409</ele>
        <time>2022-04-03T11:08:32.931Z</time>
      </trkpt>
      <trkpt lat="45.47449" lon="4.65574">
        <ele>460.10223315618</ele>
        <time>2022-04-03T11:08:35.094Z</time>
      </trkpt>
      <trkpt lat="45.47386" lon="4.6559">
        <ele>462.57121716178</ele>
        <time>2022-04-03T11:08:37.270Z</time>
      </trkpt>
      <trkpt lat="45.47352" lon="4.65594">
        <ele>465.16935576771</ele>
        <time>2022-04-03T11:08:39.453Z</time>
      </trkpt>
      <trkpt lat="45.47302" lon="4.65597">
        <ele>470.57655748055</ele>
        <time>2022-04-03T11:08:43.828Z</time>
      </trkpt>
      <trkpt lat="45.4727" lon="4.65603">
        <ele>473.23163499261</ele>
        <time>2022-04-03T11:08:46.027Z</time>
      </trkpt>
      <trkpt lat="45.4722" lon="4.65628">
        <ele>476.14017931013</ele>
        <time>2022-04-03T11:08:48.237Z</time>
      </trkpt>
      <trkpt lat="45.47145" lon="4.65636">
        <ele>478.94507938165</ele>
        <time>2022-04-03T11:08:50.462Z</time>
      </trkpt>
      <trkpt lat="45.4713" lon="4.65641">
        <ele>481.39452103209</ele>
        <time>2022-04-03T11:08:52.690Z</time>
      </trkpt>
      <trkpt lat="45.47123" lon="4.65642">
        <ele>483.73033779036</ele>
        <time>2022-04-03T11:08:54.919Z</time>
      </trkpt>
      <trkpt lat="45.47097" lon="4.65653">
        <ele>486.02891825355</ele>
        <time>2022-04-03T11:08:57.153Z</time>
      </trkpt>
      <trkpt lat="45.47076" lon="4.65674">
        <ele>488.1977392252</ele>
        <time>2022-04-03T11:08:59.393Z</time>
      </trkpt>
      <trkpt lat="45.47062" lon="4.65695">
        <ele>490.31553740173</ele>
        <time>2022-04-03T11:09:01.637Z</time>
      </trkpt>
      <trkpt lat="45.47046" lon="4.65741">
        <ele>492.40498756694</ele>
        <time>2022-04-03T11:09:03.888Z</time>
      </trkpt>
      <trkpt lat="45.47036" lon="4.65761">
        <ele>494.31847405681</ele>
        <time>2022-04-03T11:09:06.142Z</time>
      </trkpt>
      <trkpt lat="45.47006" lon="4.65801">
        <ele>496.1918630333</ele>
        <time>2022-04-03T11:09:08.405Z</time>
      </trkpt>
      <trkpt lat="45.46981" lon="4.65831">
        <ele>497.90579553037</ele>
        <time>2022-04-03T11:09:10.674Z</time>
      </trkpt>
      <trkpt lat="45.46957" lon="4.65854">
        <ele>499.44925454101</ele>
        <time>2022-04-03T11:09:12.949Z</time>
      </trkpt>
      <trkpt lat="45.46952" lon="4.65858">
        <ele>500.80520580845</ele>
        <time>2022-04-03T11:09:15.225Z</time>
      </trkpt>
      <trkpt lat="45.46937" lon="4.65885">
        <ele>505.32105170556</ele>
        <time>2022-04-03T11:09:19.782Z</time>
      </trkpt>
      <trkpt lat="45.46927" lon="4.65907">
        <ele>506.17758095139</ele>
        <time>2022-04-03T11:09:22.067Z</time>
      </trkpt>
      <trkpt lat="45.46924" lon="4.65928">
        <ele>506.98019479151</ele>
        <time>2022-04-03T11:09:24.355Z</time>
      </trkpt>
      <trkpt lat="45.46919" lon="4.65943">
        <ele>507.63645366904</ele>
        <time>2022-04-03T11:09:26.645Z</time>
      </trkpt>
      <trkpt lat="45.4691" lon="4.65949">
        <ele>508.19084596706</ele>
        <time>2022-04-03T11:09:28.937Z</time>
      </trkpt>
      <trkpt lat="45.469" lon="4.65946">
        <ele>508.65642369285</ele>
        <time>2022-04-03T11:09:31.231Z</time>
      </trkpt>
      <trkpt lat="45.46893" lon="4.65937">
        <ele>509.0150191276</ele>
        <time>2022-04-03T11:09:33.527Z</time>
      </trkpt>
      <trkpt lat="45.4688" lon="4.65909">
        <ele>509.32571749364</ele>
        <time>2022-04-03T11:09:35.828Z</time>
      </trkpt>
      <trkpt lat="45.46875" lon="4.65904">
        <ele>509.63065973863</ele>
        <time>2022-04-03T11:09:38.130Z</time>
      </trkpt>
      <trkpt lat="45.4687" lon="4.65901">
        <ele>509.90654065871</ele>
        <time>2022-04-03T11:09:40.433Z</time>
      </trkpt>
      <trkpt lat="45.46866" lon="4.65901">
        <ele>510.27369325552</ele>
        <time>2022-04-03T11:09:45.040Z</time>
      </trkpt>
      <trkpt lat="45.46861" lon="4.65905">
        <ele>510.45095325154</ele>
        <time>2022-04-03T11:09:47.345Z</time>
      </trkpt>
      <trkpt lat="45.46858" lon="4.65915">
        <ele>510.61638623474</ele>
        <time>2022-04-03T11:09:49.651Z</time>
      </trkpt>
      <trkpt lat="45.4686" lon="4.65928">
        <ele>510.6781732776</ele>
        <time>2022-04-03T11:09:51.959Z</time>
      </trkpt>
      <trkpt lat="45.46863" lon="4.65935">
        <ele>510.7143464048</ele>
        <time>2022-04-03T11:09:54.268Z</time>
      </trkpt>
      <trkpt lat="45.46866" lon="4.65942">
        <ele>510.9027555168</ele>
        <time>2022-04-03T11:10:01.196Z</time>
      </trkpt>
      <trkpt lat="45.4691" lon="4.66007">
        <ele>510.94532358885</ele>
        <time>2022-04-03T11:10:03.519Z</time>
      </trkpt>
      <trkpt lat="45.46917" lon="4.6602">
        <ele>511.0882594424</ele>
        <time>2022-04-03T11:10:05.845Z</time>
      </trkpt>
      <trkpt lat="45.46923" lon="4.66034">
        <ele>511.284585096</ele>
        <time>2022-04-03T11:10:08.173Z</time>
      </trkpt>
      <trkpt lat="45.46925" lon="4.66049">
        <ele>511.52340112792</ele>
        <time>2022-04-03T11:10:10.503Z</time>
      </trkpt>
      <trkpt lat="45.46925" lon="4.66063">
        <ele>511.81131430148</ele>
        <time>2022-04-03T11:10:12.835Z</time>
      </trkpt>
      <trkpt lat="45.46916" lon="4.66107">
        <ele>512.10862525166</ele>
        <time>2022-04-03T11:10:15.173Z</time>
      </trkpt>
      <trkpt lat="45.46917" lon="4.66121">
        <ele>512.43224355298</ele>
        <time>2022-04-03T11:10:17.513Z</time>
      </trkpt>
      <trkpt lat="45.46921" lon="4.66136">
        <ele>512.84638827964</ele>
        <time>2022-04-03T11:10:19.856Z</time>
      </trkpt>
      <trkpt lat="45.46927" lon="4.66144">
        <ele>513.29481144745</ele>
        <time>2022-04-03T11:10:22.200Z</time>
      </trkpt>
      <trkpt lat="45.46934" lon="4.6615">
        <ele>513.81311308851</ele>
        <time>2022-04-03T11:10:24.546Z</time>
      </trkpt>
      <trkpt lat="45.46948" lon="4.66148">
        <ele>514.37331383196</ele>
        <time>2022-04-03T11:10:26.895Z</time>
      </trkpt>
      <trkpt lat="45.46955" lon="4.66142">
        <ele>514.97086466818</ele>
        <time>2022-04-03T11:10:29.245Z</time>
      </trkpt>
      <trkpt lat="45.4696" lon="4.66134">
        <ele>515.62899345717</ele>
        <time>2022-04-03T11:10:31.597Z</time>
      </trkpt>
      <trkpt lat="45.46967" lon="4.66119">
        <ele>516.26591563835</ele>
        <time>2022-04-03T11:10:33.951Z</time>
      </trkpt>
      <trkpt lat="45.47013" lon="4.65951">
        <ele>517.09778068025</ele>
        <time>2022-04-03T11:10:36.331Z</time>
      </trkpt>
      <trkpt lat="45.47026" lon="4.65929">
        <ele>517.95268590831</ele>
        <time>2022-04-03T11:10:38.715Z</time>
      </trkpt>
      <trkpt lat="45.47083" lon="4.65891">
        <ele>518.91732819934</ele>
        <time>2022-04-03T11:10:41.111Z</time>
      </trkpt>
      <trkpt lat="45.4709" lon="4.65892">
        <ele>519.92453310405</ele>
        <time>2022-04-03T11:10:43.509Z</time>
      </trkpt>
      <trkpt lat="45.47095" lon="4.65892">
        <ele>522.13756985772</ele>
        <time>2022-04-03T11:10:48.306Z</time>
      </trkpt>
      <trkpt lat="45.47104" lon="4.65905">
        <ele>523.47612719315</ele>
        <time>2022-04-03T11:10:50.707Z</time>
      </trkpt>
      <trkpt lat="45.47104" lon="4.65924">
        <ele>524.91676397147</ele>
        <time>2022-04-03T11:10:53.111Z</time>
      </trkpt>
      <trkpt lat="45.47093" lon="4.65944">
        <ele>526.40020225383</ele>
        <time>2022-04-03T11:10:55.518Z</time>
      </trkpt>
      <trkpt lat="45.47066" lon="4.65982">
        <ele>527.88583852971</ele>
        <time>2022-04-03T11:10:57.933Z</time>
      </trkpt>
      <trkpt lat="45.47061" lon="4.66002">
        <ele>529.39723830641</ele>
        <time>2022-04-03T11:11:00.351Z</time>
      </trkpt>
      <trkpt lat="45.4705" lon="4.66118">
        <ele>531.40118054052</ele>
        <time>2022-04-03T11:11:02.786Z</time>
      </trkpt>
      <trkpt lat="45.47037" lon="4.6621">
        <ele>533.13375412156</ele>
        <time>2022-04-03T11:11:05.234Z</time>
      </trkpt>
      <trkpt lat="45.47026" lon="4.66267">
        <ele>534.98950713824</ele>
        <time>2022-04-03T11:11:07.690Z</time>
      </trkpt>
      <trkpt lat="45.47011" lon="4.66322">
        <ele>536.90919284583</ele>
        <time>2022-04-03T11:11:10.154Z</time>
      </trkpt>
      <trkpt lat="45.46998" lon="4.66355">
        <ele>538.86367891886</ele>
        <time>2022-04-03T11:11:12.624Z</time>
      </trkpt>
      <trkpt lat="45.46974" lon="4.66392">
        <ele>540.81116922062</ele>
        <time>2022-04-03T11:11:15.101Z</time>
      </trkpt>
      <trkpt lat="45.46972" lon="4.66394">
        <ele>544.77210896192</ele>
        <time>2022-04-03T11:11:20.055Z</time>
      </trkpt>
      <trkpt lat="45.46958" lon="4.66426">
        <ele>546.83336144613</ele>
        <time>2022-04-03T11:11:22.538Z</time>
      </trkpt>
      <trkpt lat="45.46934" lon="4.66518">
        <ele>549.19695505703</ele>
        <time>2022-04-03T11:11:25.034Z</time>
      </trkpt>
      <trkpt lat="45.46921" lon="4.66545">
        <ele>551.49621276501</ele>
        <time>2022-04-03T11:11:27.535Z</time>
      </trkpt>
      <trkpt lat="45.46874" lon="4.6659">
        <ele>553.97897764072</ele>
        <time>2022-04-03T11:11:30.047Z</time>
      </trkpt>
      <trkpt lat="45.46859" lon="4.66605">
        <ele>556.44147102924</ele>
        <time>2022-04-03T11:11:32.563Z</time>
      </trkpt>
      <trkpt lat="45.46837" lon="4.66695">
        <ele>559.04631555502</ele>
        <time>2022-04-03T11:11:35.092Z</time>
      </trkpt>
      <trkpt lat="45.46821" lon="4.66745">
        <ele>561.78199510821</ele>
        <time>2022-04-03T11:11:37.629Z</time>
      </trkpt>
      <trkpt lat="45.46795" lon="4.66784">
        <ele>564.6069497347</ele>
        <time>2022-04-03T11:11:40.174Z</time>
      </trkpt>
      <trkpt lat="45.46723" lon="4.66858">
        <ele>567.71913159929</ele>
        <time>2022-04-03T11:11:42.736Z</time>
      </trkpt>
      <trkpt lat="45.46699" lon="4.6689">
        <ele>570.75939652268</ele>
        <time>2022-04-03T11:11:45.305Z</time>
      </trkpt>
      <trkpt lat="45.46677" lon="4.66936">
        <ele>573.88959542089</ele>
        <time>2022-04-03T11:11:47.882Z</time>
      </trkpt>
      <trkpt lat="45.46645" lon="4.67017">
        <ele>577.18156284826</ele>
        <time>2022-04-03T11:11:50.472Z</time>
      </trkpt>
      <trkpt lat="45.46641" lon="4.67029">
        <ele>583.77905360274</ele>
        <time>2022-04-03T11:11:55.654Z</time>
      </trkpt>
      <trkpt lat="45.46638" lon="4.67056">
        <ele>587.34610630381</ele>
        <time>2022-04-03T11:11:58.250Z</time>
      </trkpt>
      <trkpt lat="45.46652" lon="4.67066">
        <ele>591.02053071477</ele>
        <time>2022-04-03T11:12:00.849Z</time>
      </trkpt>
      <trkpt lat="45.46654" lon="4.67115">
        <ele>594.78995186395</ele>
        <time>2022-04-03T11:12:03.455Z</time>
      </trkpt>
      <trkpt lat="45.46654" lon="4.67175">
        <ele>598.75565032382</ele>
        <time>2022-04-03T11:12:06.069Z</time>
      </trkpt>
      <trkpt lat="45.46656" lon="4.67216">
        <ele>602.8898688488</ele>
        <time>2022-04-03T11:12:08.689Z</time>
      </trkpt>
      <trkpt lat="45.46654" lon="4.67247">
        <ele>606.95969344723</ele>
        <time>2022-04-03T11:12:11.313Z</time>
      </trkpt>
      <trkpt lat="45.46653" lon="4.67263">
        <ele>610.98582159391</ele>
        <time>2022-04-03T11:12:13.940Z</time>
      </trkpt>
      <trkpt lat="45.46654" lon="4.6729">
        <ele>615.09693471083</ele>
        <time>2022-04-03T11:12:16.570Z</time>
      </trkpt>
      <trkpt lat="45.46641" lon="4.67378">
        <ele>619.57876695451</ele>
        <time>2022-04-03T11:12:19.213Z</time>
      </trkpt>
      <trkpt lat="45.46574" lon="4.67553">
        <ele>624.57465331898</ele>
        <time>2022-04-03T11:12:21.884Z</time>
      </trkpt>
      <trkpt lat="45.46536" lon="4.67618">
        <ele>628.95424152643</ele>
        <time>2022-04-03T11:12:24.567Z</time>
      </trkpt>
      <trkpt lat="45.46526" lon="4.67642">
        <ele>633.08690301309</ele>
        <time>2022-04-03T11:12:27.254Z</time>
      </trkpt>
      <trkpt lat="45.46508" lon="4.67683">
        <ele>637.41010872839</ele>
        <time>2022-04-03T11:12:29.948Z</time>
      </trkpt>
      <trkpt lat="45.46491" lon="4.67726">
        <ele>641.56240221905</ele>
        <time>2022-04-03T11:12:32.649Z</time>
      </trkpt>
      <trkpt lat="45.46482" lon="4.67753">
        <ele>645.61595232775</ele>
        <time>2022-04-03T11:12:35.354Z</time>
      </trkpt>
      <trkpt lat="45.46471" lon="4.67798">
        <ele>649.54296475594</ele>
        <time>2022-04-03T11:12:38.066Z</time>
      </trkpt>
      <trkpt lat="45.46471" lon="4.67818">
        <ele>653.2516183396</ele>
        <time>2022-04-03T11:12:40.780Z</time>
      </trkpt>
      <trkpt lat="45.4646" lon="4.67822">
        <ele>656.83191464435</ele>
        <time>2022-04-03T11:12:43.497Z</time>
      </trkpt>
      <trkpt lat="45.46453" lon="4.67821">
        <ele>660.30091599372</ele>
        <time>2022-04-03T11:12:46.215Z</time>
      </trkpt>
      <trkpt lat="45.46449" lon="4.67832">
        <ele>663.65338255153</ele>
        <time>2022-04-03T11:12:48.935Z</time>
      </trkpt>
      <trkpt lat="45.46444" lon="4.67829">
        <ele>666.88432143564</ele>
        <time>2022-04-03T11:12:51.656Z</time>
      </trkpt>
      <trkpt lat="45.46433" lon="4.67828">
        <ele>670.0444182207</ele>
        <time>2022-04-03T11:12:54.379Z</time>
      </trkpt>
      <trkpt lat="45.46425" lon="4.67834">
        <ele>673.062880589</ele>
        <time>2022-04-03T11:12:57.104Z</time>
      </trkpt>
      <trkpt lat="45.46398" lon="4.67868">
        <ele>675.95882746826</ele>
        <time>2022-04-03T11:12:59.836Z</time>
      </trkpt>
      <trkpt lat="45.46351" lon="4.67904">
        <ele>679.03111728108</ele>
        <time>2022-04-03T11:13:02.579Z</time>
      </trkpt>
      <trkpt lat="45.46331" lon="4.67923">
        <ele>681.79937646335</ele>
        <time>2022-04-03T11:13:05.327Z</time>
      </trkpt>
      <trkpt lat="45.46275" lon="4.67959">
        <ele>684.42398565308</ele>
        <time>2022-04-03T11:13:08.087Z</time>
      </trkpt>
      <trkpt lat="45.46265" lon="4.67964">
        <ele>686.74411859874</ele>
        <time>2022-04-03T11:13:10.849Z</time>
      </trkpt>
      <trkpt lat="45.46219" lon="4.67981">
        <ele>689.11136255349</ele>
        <time>2022-04-03T11:13:13.621Z</time>
      </trkpt>
      <trkpt lat="45.4621" lon="4.67985">
        <ele>690.92811878826</ele>
        <time>2022-04-03T11:13:16.395Z</time>
      </trkpt>
      <trkpt lat="45.46196" lon="4.68">
        <ele>692.39962186004</ele>
        <time>2022-04-03T11:13:19.172Z</time>
      </trkpt>
      <trkpt lat="45.46157" lon="4.68059">
        <ele>693.65165646533</ele>
        <time>2022-04-03T11:13:21.961Z</time>
      </trkpt>
      <trkpt lat="45.4612" lon="4.68096">
        <ele>695.10862611202</ele>
        <time>2022-04-03T11:13:24.758Z</time>
      </trkpt>
      <trkpt lat="45.46087" lon="4.6814">
        <ele>695.65443209812</ele>
        <time>2022-04-03T11:13:27.565Z</time>
      </trkpt>
      <trkpt lat="45.46076" lon="4.68152">
        <ele>696.17459863963</ele>
        <time>2022-04-03T11:13:30.374Z</time>
      </trkpt>
      <trkpt lat="45.46051" lon="4.6817">
        <ele>696.48848422125</ele>
        <time>2022-04-03T11:13:33.189Z</time>
      </trkpt>
      <trkpt lat="45.46004" lon="4.68197">
        <ele>696.64341355788</ele>
        <time>2022-04-03T11:13:36.014Z</time>
      </trkpt>
      <trkpt lat="45.45983" lon="4.68205">
        <ele>696.64989097476</ele>
        <time>2022-04-03T11:13:38.843Z</time>
      </trkpt>
      <trkpt lat="45.45944" lon="4.68213">
        <ele>696.42123606941</ele>
        <time>2022-04-03T11:13:41.680Z</time>
      </trkpt>
      <trkpt lat="45.4589" lon="4.6822">
        <ele>695.86260194871</ele>
        <time>2022-04-03T11:13:44.528Z</time>
      </trkpt>
      <trkpt lat="45.45873" lon="4.68219">
        <ele>695.18519201313</ele>
        <time>2022-04-03T11:13:47.379Z</time>
      </trkpt>
      <trkpt lat="45.45856" lon="4.68213">
        <ele>694.40232372359</ele>
        <time>2022-04-03T11:13:50.234Z</time>
      </trkpt>
      <trkpt lat="45.45819" lon="4.68213">
        <ele>693.38038878752</ele>
        <time>2022-04-03T11:13:53.097Z</time>
      </trkpt>
      <trkpt lat="45.45806" lon="4.68211">
        <ele>692.12545147834</ele>
        <time>2022-04-03T11:13:55.962Z</time>
      </trkpt>
      <trkpt lat="45.45764" lon="4.68236">
        <ele>688.62389242643</ele>
        <time>2022-04-03T11:14:01.701Z</time>
      </trkpt>
      <trkpt lat="45.45738" lon="4.68242">
        <ele>686.62145104017</ele>
        <time>2022-04-03T11:14:04.580Z</time>
      </trkpt>
      <trkpt lat="45.45728" lon="4.68241">
        <ele>684.58984141099</ele>
        <time>2022-04-03T11:14:07.461Z</time>
      </trkpt>
      <trkpt lat="45.45675" lon="4.68222">
        <ele>682.4242591815</ele>
        <time>2022-04-03T11:14:10.353Z</time>
      </trkpt>
      <trkpt lat="45.45588" lon="4.68169">
        <ele>679.86478825195</ele>
        <time>2022-04-03T11:14:13.264Z</time>
      </trkpt>
      <trkpt lat="45.45548" lon="4.68138">
        <ele>677.47564221441</ele>
        <time>2022-04-03T11:14:16.184Z</time>
      </trkpt>
      <trkpt lat="45.45507" lon="4.68117">
        <ele>674.88409466038</ele>
        <time>2022-04-03T11:14:19.113Z</time>
      </trkpt>
      <trkpt lat="45.45489" lon="4.68114">
        <ele>672.16138974474</ele>
        <time>2022-04-03T11:14:22.046Z</time>
      </trkpt>
      <trkpt lat="45.4548" lon="4.68115">
        <ele>669.39494547511</ele>
        <time>2022-04-03T11:14:24.981Z</time>
      </trkpt>
      <trkpt lat="45.45475" lon="4.68121">
        <ele>666.57234963289</ele>
        <time>2022-04-03T11:14:27.917Z</time>
      </trkpt>
      <trkpt lat="45.45466" lon="4.68152">
        <ele>663.22989448131</ele>
        <time>2022-04-03T11:14:30.858Z</time>
      </trkpt>
      <trkpt lat="45.45461" lon="4.68159">
        <ele>660.34561971327</ele>
        <time>2022-04-03T11:14:33.800Z</time>
      </trkpt>
      <trkpt lat="45.45455" lon="4.68165">
        <ele>657.47632656238</ele>
        <time>2022-04-03T11:14:36.744Z</time>
      </trkpt>
      <trkpt lat="45.45415" lon="4.68175">
        <ele>654.23293502033</ele>
        <time>2022-04-03T11:14:39.696Z</time>
      </trkpt>
      <trkpt lat="45.45387" lon="4.6818">
        <ele>651.44224309733</ele>
        <time>2022-04-03T11:14:42.653Z</time>
      </trkpt>
      <trkpt lat="45.45372" lon="4.68183">
        <ele>646.38389956677</ele>
        <time>2022-04-03T11:14:48.570Z</time>
      </trkpt>
      <trkpt lat="45.45331" lon="4.68152">
        <ele>644.17747551326</ele>
        <time>2022-04-03T11:14:51.540Z</time>
      </trkpt>
      <trkpt lat="45.45316" lon="4.68145">
        <ele>642.13970100697</ele>
        <time>2022-04-03T11:14:54.513Z</time>
      </trkpt>
      <trkpt lat="45.4531" lon="4.68145">
        <ele>640.08791121731</ele>
        <time>2022-04-03T11:14:57.487Z</time>
      </trkpt>
      <trkpt lat="45.45305" lon="4.68146">
        <ele>638.11961220297</ele>
        <time>2022-04-03T11:15:00.462Z</time>
      </trkpt>
      <trkpt lat="45.45295" lon="4.68152">
        <ele>636.28716197202</ele>
        <time>2022-04-03T11:15:03.439Z</time>
      </trkpt>
      <trkpt lat="45.45286" lon="4.6816">
        <ele>634.48575627662</ele>
        <time>2022-04-03T11:15:06.418Z</time>
      </trkpt>
      <trkpt lat="45.45264" lon="4.68197">
        <ele>632.6980326991</ele>
        <time>2022-04-03T11:15:09.404Z</time>
      </trkpt>
      <trkpt lat="45.45231" lon="4.68266">
        <ele>631.03396802602</ele>
        <time>2022-04-03T11:15:12.402Z</time>
      </trkpt>
      <trkpt lat="45.45221" lon="4.68278">
        <ele>629.53470424589</ele>
        <time>2022-04-03T11:15:15.402Z</time>
      </trkpt>
      <trkpt lat="45.45216" lon="4.68285">
        <ele>625.39135574495</ele>
        <time>2022-04-03T11:15:24.404Z</time>
      </trkpt>
      <trkpt lat="45.45203" lon="4.68291">
        <ele>624.07780541986</ele>
        <time>2022-04-03T11:15:27.409Z</time>
      </trkpt>
      <trkpt lat="45.45189" lon="4.68292">
        <ele>622.83966762176</ele>
        <time>2022-04-03T11:15:30.416Z</time>
      </trkpt>
      <trkpt lat="45.45176" lon="4.68291">
        <ele>621.59110350841</ele>
        <time>2022-04-03T11:15:33.426Z</time>
      </trkpt>
      <trkpt lat="45.45165" lon="4.68288">
        <ele>620.3998544891</ele>
        <time>2022-04-03T11:15:36.438Z</time>
      </trkpt>
      <trkpt lat="45.45125" lon="4.68268">
        <ele>619.25098404105</ele>
        <time>2022-04-03T11:15:39.459Z</time>
      </trkpt>
      <trkpt lat="45.451" lon="4.68261">
        <ele>618.17388487153</ele>
        <time>2022-04-03T11:15:42.485Z</time>
      </trkpt>
      <trkpt lat="45.45087" lon="4.68262">
        <ele>617.01412805379</ele>
        <time>2022-04-03T11:15:45.513Z</time>
      </trkpt>
      <trkpt lat="45.45076" lon="4.68268">
        <ele>615.75383115553</ele>
        <time>2022-04-03T11:15:48.544Z</time>
      </trkpt>
      <trkpt lat="45.45064" lon="4.68277">
        <ele>614.43975326314</ele>
        <time>2022-04-03T11:15:51.577Z</time>
      </trkpt>
      <trkpt lat="45.4504" lon="4.68307">
        <ele>613.03340879294</ele>
        <time>2022-04-03T11:15:54.617Z</time>
      </trkpt>
      <trkpt lat="45.45031" lon="4.68316">
        <ele>610.54403726482</ele>
        <time>2022-04-03T11:16:00.699Z</time>
      </trkpt>
      <trkpt lat="45.45019" lon="4.68322">
        <ele>609.26117274462</ele>
        <time>2022-04-03T11:16:03.744Z</time>
      </trkpt>
      <trkpt lat="45.45003" lon="4.68327">
        <ele>607.9833211999</ele>
        <time>2022-04-03T11:16:06.792Z</time>
      </trkpt>
      <trkpt lat="45.44987" lon="4.68324">
        <ele>606.69696797542</ele>
        <time>2022-04-03T11:16:09.843Z</time>
      </trkpt>
      <trkpt lat="45.44972" lon="4.68319">
        <ele>605.43401053851</ele>
        <time>2022-04-03T11:16:12.897Z</time>
      </trkpt>
      <trkpt lat="45.44928" lon="4.68289">
        <ele>604.19998619407</ele>
        <time>2022-04-03T11:16:15.961Z</time>
      </trkpt>
      <trkpt lat="45.44907" lon="4.68279">
        <ele>602.86233235357</ele>
        <time>2022-04-03T11:16:19.029Z</time>
      </trkpt>
      <trkpt lat="45.44847" lon="4.68228">
        <ele>601.12324258048</ele>
        <time>2022-04-03T11:16:22.111Z</time>
      </trkpt>
      <trkpt lat="45.44822" lon="4.6819">
        <ele>600.00410585543</ele>
        <time>2022-04-03T11:16:25.201Z</time>
      </trkpt>
      <trkpt lat="45.44792" lon="4.68173">
        <ele>598.72246730984</ele>
        <time>2022-04-03T11:16:28.297Z</time>
      </trkpt>
      <trkpt lat="45.44751" lon="4.68137">
        <ele>597.2139318053</ele>
        <time>2022-04-03T11:16:31.403Z</time>
      </trkpt>
      <trkpt lat="45.44726" lon="4.68093">
        <ele>596.05456851405</ele>
        <time>2022-04-03T11:16:34.517Z</time>
      </trkpt>
      <trkpt lat="45.44718" lon="4.68039">
        <ele>595.42187301276</ele>
        <time>2022-04-03T11:16:37.638Z</time>
      </trkpt>
      <trkpt lat="45.44698" lon="4.67983">
        <ele>594.83779864708</ele>
        <time>2022-04-03T11:16:40.768Z</time>
      </trkpt>
      <trkpt lat="45.44691" lon="4.6797">
        <ele>594.30456779401</ele>
        <time>2022-04-03T11:16:43.901Z</time>
      </trkpt>
      <trkpt lat="45.44683" lon="4.67955">
        <ele>593.90902599125</ele>
        <time>2022-04-03T11:16:47.036Z</time>
      </trkpt>
      <trkpt lat="45.44672" lon="4.67931">
        <ele>593.46808116111</ele>
        <time>2022-04-03T11:16:53.310Z</time>
      </trkpt>
      <trkpt lat="45.44653" lon="4.67875">
        <ele>593.45038960104</ele>
        <time>2022-04-03T11:16:56.458Z</time>
      </trkpt>
      <trkpt lat="45.44621" lon="4.67756">
        <ele>593.79975066704</ele>
        <time>2022-04-03T11:16:59.624Z</time>
      </trkpt>
      <trkpt lat="45.44608" lon="4.67729">
        <ele>593.96136064502</ele>
        <time>2022-04-03T11:17:02.795Z</time>
      </trkpt>
      <trkpt lat="45.44602" lon="4.67695">
        <ele>594.30228522125</ele>
        <time>2022-04-03T11:17:05.971Z</time>
      </trkpt>
      <trkpt lat="45.44594" lon="4.67673">
        <ele>594.64996698551</ele>
        <time>2022-04-03T11:17:09.150Z</time>
      </trkpt>
      <trkpt lat="45.44589" lon="4.67645">
        <ele>595.10533561334</ele>
        <time>2022-04-03T11:17:12.333Z</time>
      </trkpt>
      <trkpt lat="45.44583" lon="4.67595">
        <ele>595.74416204296</ele>
        <time>2022-04-03T11:17:15.523Z</time>
      </trkpt>
      <trkpt lat="45.44595" lon="4.67544">
        <ele>596.9137876742</ele>
        <time>2022-04-03T11:17:18.721Z</time>
      </trkpt>
      <trkpt lat="45.44562" lon="4.67477">
        <ele>597.04697958612</ele>
        <time>2022-04-03T11:17:21.930Z</time>
      </trkpt>
      <trkpt lat="45.44558" lon="4.67464">
        <ele>597.42068887202</ele>
        <time>2022-04-03T11:17:25.141Z</time>
      </trkpt>
      <trkpt lat="45.44546" lon="4.67416">
        <ele>597.79123816052</ele>
        <time>2022-04-03T11:17:28.360Z</time>
      </trkpt>
      <trkpt lat="45.4454" lon="4.67395">
        <ele>598.11260774559</ele>
        <time>2022-04-03T11:17:31.582Z</time>
      </trkpt>
      <trkpt lat="45.44527" lon="4.67373">
        <ele>598.34429708073</ele>
        <time>2022-04-03T11:17:34.808Z</time>
      </trkpt>
      <trkpt lat="45.44502" lon="4.67334">
        <ele>598.58558396284</ele>
        <time>2022-04-03T11:17:38.041Z</time>
      </trkpt>
      <trkpt lat="45.44459" lon="4.67243">
        <ele>598.86107265594</ele>
        <time>2022-04-03T11:17:41.290Z</time>
      </trkpt>
      <trkpt lat="45.4445" lon="4.67226">
        <ele>598.99818086134</ele>
        <time>2022-04-03T11:17:44.542Z</time>
      </trkpt>
      <trkpt lat="45.44437" lon="4.67213">
        <ele>598.99453706732</ele>
        <time>2022-04-03T11:17:47.797Z</time>
      </trkpt>
      <trkpt lat="45.44427" lon="4.67206">
        <ele>598.87791719891</ele>
        <time>2022-04-03T11:17:51.054Z</time>
      </trkpt>
      <trkpt lat="45.44417" lon="4.67203">
        <ele>598.63691024647</ele>
        <time>2022-04-03T11:17:54.313Z</time>
      </trkpt>
      <trkpt lat="45.44405" lon="4.67201">
        <ele>598.3217740022</ele>
        <time>2022-04-03T11:17:57.575Z</time>
      </trkpt>
      <trkpt lat="45.44386" lon="4.672">
        <ele>597.9018847118</ele>
        <time>2022-04-03T11:18:00.840Z</time>
      </trkpt>
      <trkpt lat="45.44371" lon="4.67197">
        <ele>597.41393675556</ele>
        <time>2022-04-03T11:18:04.108Z</time>
      </trkpt>
      <trkpt lat="45.44357" lon="4.6719">
        <ele>596.87534704609</ele>
        <time>2022-04-03T11:18:07.379Z</time>
      </trkpt>
      <trkpt lat="45.44336" lon="4.67174">
        <ele>596.20425833299</ele>
        <time>2022-04-03T11:18:10.655Z</time>
      </trkpt>
      <trkpt lat="45.4431" lon="4.67157">
        <ele>595.55775917815</ele>
        <time>2022-04-03T11:18:13.937Z</time>
      </trkpt>
      <trkpt lat="45.44281" lon="4.67146">
        <ele>594.9107163608</ele>
        <time>2022-04-03T11:18:17.225Z</time>
      </trkpt>
      <trkpt lat="45.44207" lon="4.6714">
        <ele>593.63524581113</ele>
        <time>2022-04-03T11:18:20.528Z</time>
      </trkpt>
      <trkpt lat="45.44189" lon="4.67137">
        <ele>592.64739293279</ele>
        <time>2022-04-03T11:18:23.834Z</time>
      </trkpt>
      <trkpt lat="45.44166" lon="4.67129">
        <ele>591.73027213715</ele>
        <time>2022-04-03T11:18:27.145Z</time>
      </trkpt>
      <trkpt lat="45.44144" lon="4.67114">
        <ele>590.81472978648</ele>
        <time>2022-04-03T11:18:30.461Z</time>
      </trkpt>
      <trkpt lat="45.44131" lon="4.67101">
        <ele>589.97971975702</ele>
        <time>2022-04-03T11:18:33.780Z</time>
      </trkpt>
      <trkpt lat="45.44105" lon="4.67064">
        <ele>589.2493060793</ele>
        <time>2022-04-03T11:18:37.106Z</time>
      </trkpt>
      <trkpt lat="45.44093" lon="4.67041">
        <ele>588.54738247713</ele>
        <time>2022-04-03T11:18:40.436Z</time>
      </trkpt>
      <trkpt lat="45.44041" lon="4.66904">
        <ele>587.70353992714</ele>
        <time>2022-04-03T11:18:43.788Z</time>
      </trkpt>
      <trkpt lat="45.44033" lon="4.66879">
        <ele>586.93485803292</ele>
        <time>2022-04-03T11:18:47.144Z</time>
      </trkpt>
      <trkpt lat="45.44031" lon="4.66863">
        <ele>586.24349983955</ele>
        <time>2022-04-03T11:18:50.502Z</time>
      </trkpt>
      <trkpt lat="45.44027" lon="4.66821">
        <ele>585.58233689094</ele>
        <time>2022-04-03T11:18:53.866Z</time>
      </trkpt>
      <trkpt lat="45.44027" lon="4.66767">
        <ele>584.86749134998</ele>
        <time>2022-04-03T11:18:57.238Z</time>
      </trkpt>
      <trkpt lat="45.44026" lon="4.66696">
        <ele>584.16242812391</ele>
        <time>2022-04-03T11:19:00.620Z</time>
      </trkpt>
      <trkpt lat="45.44027" lon="4.66767">
        <ele>583.39453538686</ele>
        <time>2022-04-03T11:19:07.394Z</time>
      </trkpt>
      <trkpt lat="45.44035" lon="4.66742">
        <ele>583.14264453293</ele>
        <time>2022-04-03T11:19:10.790Z</time>
      </trkpt>
      <trkpt lat="45.44062" lon="4.66575">
        <ele>583.14852974752</ele>
        <time>2022-04-03T11:19:14.210Z</time>
      </trkpt>
      <trkpt lat="45.44067" lon="4.66534">
        <ele>583.0507711944</ele>
        <time>2022-04-03T11:19:17.636Z</time>
      </trkpt>
      <trkpt lat="45.44085" lon="4.66426">
        <ele>583.35840536302</ele>
        <time>2022-04-03T11:19:21.078Z</time>
      </trkpt>
      <trkpt lat="45.44094" lon="4.66396">
        <ele>583.43494728627</ele>
        <time>2022-04-03T11:19:24.524Z</time>
      </trkpt>
      <trkpt lat="45.44105" lon="4.66377">
        <ele>583.57328025338</ele>
        <time>2022-04-03T11:19:27.974Z</time>
      </trkpt>
      <trkpt lat="45.44102" lon="4.66362">
        <ele>583.62442223605</ele>
        <time>2022-04-03T11:19:31.426Z</time>
      </trkpt>
      <trkpt lat="45.44104" lon="4.66345">
        <ele>583.78817282064</ele>
        <time>2022-04-03T11:19:34.880Z</time>
      </trkpt>
      <trkpt lat="45.4412" lon="4.66306">
        <ele>584.02020561413</ele>
        <time>2022-04-03T11:19:38.341Z</time>
      </trkpt>
      <trkpt lat="45.44121" lon="4.66291">
        <ele>584.39180219761</ele>
        <time>2022-04-03T11:19:41.804Z</time>
      </trkpt>
      <trkpt lat="45.44116" lon="4.66277">
        <ele>584.88276943232</ele>
        <time>2022-04-03T11:19:45.269Z</time>
      </trkpt>
      <trkpt lat="45.44105" lon="4.66251">
        <ele>585.41374247499</ele>
        <time>2022-04-03T11:19:48.738Z</time>
      </trkpt>
      <trkpt lat="45.44097" lon="4.66223">
        <ele>586.15352924025</ele>
        <time>2022-04-03T11:19:52.212Z</time>
      </trkpt>
      <trkpt lat="45.44107" lon="4.66219">
        <ele>588.8982028701</ele>
        <time>2022-04-03T11:19:59.162Z</time>
      </trkpt>
      <trkpt lat="45.44127" lon="4.66223">
        <ele>590.73278669566</ele>
        <time>2022-04-03T11:20:02.642Z</time>
      </trkpt>
      <trkpt lat="45.44149" lon="4.66207">
        <ele>592.76939409103</ele>
        <time>2022-04-03T11:20:06.127Z</time>
      </trkpt>
      <trkpt lat="45.44168" lon="4.66173">
        <ele>595.0954939122</ele>
        <time>2022-04-03T11:20:09.618Z</time>
      </trkpt>
      <trkpt lat="45.44188" lon="4.66133">
        <ele>597.8452693009</ele>
        <time>2022-04-03T11:20:13.116Z</time>
      </trkpt>
      <trkpt lat="45.44193" lon="4.66094">
        <ele>600.72958482201</ele>
        <time>2022-04-03T11:20:16.619Z</time>
      </trkpt>
      <trkpt lat="45.44196" lon="4.66022">
        <ele>604.12949373657</ele>
        <time>2022-04-03T11:20:20.132Z</time>
      </trkpt>
      <trkpt lat="45.44199" lon="4.65939">
        <ele>607.67500665077</ele>
        <time>2022-04-03T11:20:23.657Z</time>
      </trkpt>
      <trkpt lat="45.44196" lon="4.65899">
        <ele>611.34288520611</ele>
        <time>2022-04-03T11:20:27.188Z</time>
      </trkpt>
      <trkpt lat="45.44191" lon="4.65846">
        <ele>615.25100095771</ele>
        <time>2022-04-03T11:20:30.726Z</time>
      </trkpt>
      <trkpt lat="45.44189" lon="4.65798">
        <ele>619.53531811558</ele>
        <time>2022-04-03T11:20:34.271Z</time>
      </trkpt>
      <trkpt lat="45.44195" lon="4.65665">
        <ele>624.67042008366</ele>
        <time>2022-04-03T11:20:37.835Z</time>
      </trkpt>
      <trkpt lat="45.44206" lon="4.65553">
        <ele>629.96159911364</ele>
        <time>2022-04-03T11:20:41.415Z</time>
      </trkpt>
      <trkpt lat="45.44216" lon="4.65483">
        <ele>634.89215004809</ele>
        <time>2022-04-03T11:20:45.005Z</time>
      </trkpt>
      <trkpt lat="45.44226" lon="4.65433">
        <ele>640.0002292508</ele>
        <time>2022-04-03T11:20:48.602Z</time>
      </trkpt>
      <trkpt lat="45.44252" lon="4.65341">
        <ele>645.36126701798</ele>
        <time>2022-04-03T11:20:52.213Z</time>
      </trkpt>
      <trkpt lat="45.44279" lon="4.65284">
        <ele>650.68270857989</ele>
        <time>2022-04-03T11:20:55.834Z</time>
      </trkpt>
      <trkpt lat="45.44298" lon="4.65224">
        <ele>655.89260488743</ele>
        <time>2022-04-03T11:20:59.464Z</time>
      </trkpt>
      <trkpt lat="45.44356" lon="4.65127">
        <ele>661.46335284757</ele>
        <time>2022-04-03T11:21:03.112Z</time>
      </trkpt>
      <trkpt lat="45.44384" lon="4.65079">
        <ele>666.73703073161</ele>
        <time>2022-04-03T11:21:06.769Z</time>
      </trkpt>
      <trkpt lat="45.44396" lon="4.65046">
        <ele>671.68051134403</ele>
        <time>2022-04-03T11:21:10.431Z</time>
      </trkpt>
      <trkpt lat="45.44415" lon="4.65014">
        <ele>676.65065349449</ele>
        <time>2022-04-03T11:21:14.099Z</time>
      </trkpt>
      <trkpt lat="45.44443" lon="4.64985">
        <ele>681.66663455858</ele>
        <time>2022-04-03T11:21:17.774Z</time>
      </trkpt>
      <trkpt lat="45.44482" lon="4.6495">
        <ele>686.82888935388</ele>
        <time>2022-04-03T11:21:21.458Z</time>
      </trkpt>
      <trkpt lat="45.44517" lon="4.64894">
        <ele>691.74236035993</ele>
        <time>2022-04-03T11:21:25.153Z</time>
      </trkpt>
      <trkpt lat="45.44535" lon="4.6486">
        <ele>696.62760449742</ele>
        <time>2022-04-03T11:21:28.854Z</time>
      </trkpt>
      <trkpt lat="45.4455" lon="4.64827">
        <ele>701.48407785101</ele>
        <time>2022-04-03T11:21:32.560Z</time>
      </trkpt>
      <trkpt lat="45.44561" lon="4.64797">
        <ele>706.2356754195</ele>
        <time>2022-04-03T11:21:36.271Z</time>
      </trkpt>
      <trkpt lat="45.44575" lon="4.64768">
        <ele>711.0505035737</ele>
        <time>2022-04-03T11:21:39.987Z</time>
      </trkpt>
      <trkpt lat="45.44583" lon="4.64745">
        <ele>715.78037668452</ele>
        <time>2022-04-03T11:21:43.706Z</time>
      </trkpt>
      <trkpt lat="45.44586" lon="4.64722">
        <ele>720.42532131051</ele>
        <time>2022-04-03T11:21:47.429Z</time>
      </trkpt>
      <trkpt lat="45.44578" lon="4.64674">
        <ele>724.82940576844</ele>
        <time>2022-04-03T11:21:51.159Z</time>
      </trkpt>
      <trkpt lat="45.44579" lon="4.64661">
        <ele>729.32603032779</ele>
        <time>2022-04-03T11:21:54.891Z</time>
      </trkpt>
      <trkpt lat="45.44587" lon="4.64684">
        <ele>733.75819500105</ele>
        <time>2022-04-03T11:21:58.626Z</time>
      </trkpt>
      <trkpt lat="45.4458" lon="4.64605">
        <ele>738.25227318798</ele>
        <time>2022-04-03T11:22:02.373Z</time>
      </trkpt>
      <trkpt lat="45.44588" lon="4.64537">
        <ele>742.83019163635</ele>
        <time>2022-04-03T11:22:06.129Z</time>
      </trkpt>
      <trkpt lat="45.44593" lon="4.64432">
        <ele>747.37475966013</ele>
        <time>2022-04-03T11:22:09.900Z</time>
      </trkpt>
      <trkpt lat="45.44594" lon="4.64345">
        <ele>751.69536716288</ele>
        <time>2022-04-03T11:22:13.683Z</time>
      </trkpt>
      <trkpt lat="45.44592" lon="4.64297">
        <ele>755.9298056428</ele>
        <time>2022-04-03T11:22:17.473Z</time>
      </trkpt>
      <trkpt lat="45.44591" lon="4.6424">
        <ele>760.19280305156</ele>
        <time>2022-04-03T11:22:21.271Z</time>
      </trkpt>
      <trkpt lat="45.44592" lon="4.64214">
        <ele>764.25528813648</ele>
        <time>2022-04-03T11:22:25.073Z</time>
      </trkpt>
      <trkpt lat="45.44598" lon="4.64058">
        <ele>768.93069502465</ele>
        <time>2022-04-03T11:22:28.897Z</time>
      </trkpt>
      <trkpt lat="45.44594" lon="4.63973">
        <ele>773.13841906536</ele>
        <time>2022-04-03T11:22:32.733Z</time>
      </trkpt>
      <trkpt lat="45.44584" lon="4.63872">
        <ele>777.14286743133</ele>
        <time>2022-04-03T11:22:36.583Z</time>
      </trkpt>
      <trkpt lat="45.44562" lon="4.63766">
        <ele>780.78046754662</ele>
        <time>2022-04-03T11:22:40.449Z</time>
      </trkpt>
      <trkpt lat="45.44556" lon="4.63737">
        <ele>787.29108190627</ele>
        <time>2022-04-03T11:22:48.185Z</time>
      </trkpt>
      <trkpt lat="45.4455" lon="4.63683">
        <ele>790.54967697102</ele>
        <time>2022-04-03T11:22:52.063Z</time>
      </trkpt>
      <trkpt lat="45.44548" lon="4.63675">
        <ele>793.41629049815</ele>
        <time>2022-04-03T11:22:55.942Z</time>
      </trkpt>
      <trkpt lat="45.44545" lon="4.63661">
        <ele>796.13041168119</ele>
        <time>2022-04-03T11:22:59.823Z</time>
      </trkpt>
      <trkpt lat="45.44541" lon="4.63604">
        <ele>801.21644435188</ele>
        <time>2022-04-03T11:23:07.593Z</time>
      </trkpt>
      <trkpt lat="45.44514" lon="4.63504">
        <ele>803.44003855613</ele>
        <time>2022-04-03T11:23:11.497Z</time>
      </trkpt>
      <trkpt lat="45.44505" lon="4.63466">
        <ele>805.43888849924</ele>
        <time>2022-04-03T11:23:15.407Z</time>
      </trkpt>
      <trkpt lat="45.44495" lon="4.63368">
        <ele>807.84070794796</ele>
        <time>2022-04-03T11:23:19.331Z</time>
      </trkpt>
      <trkpt lat="45.445" lon="4.6336">
        <ele>809.55642953295</ele>
        <time>2022-04-03T11:23:23.256Z</time>
      </trkpt>
      <trkpt lat="45.44502" lon="4.63348">
        <ele>811.09023634955</ele>
        <time>2022-04-03T11:23:27.183Z</time>
      </trkpt>
      <trkpt lat="45.445" lon="4.63336">
        <ele>812.41125194739</ele>
        <time>2022-04-03T11:23:31.112Z</time>
      </trkpt>
      <trkpt lat="45.4449" lon="4.63313">
        <ele>813.59446556418</ele>
        <time>2022-04-03T11:23:35.044Z</time>
      </trkpt>
      <trkpt lat="45.44489" lon="4.63308">
        <ele>814.57032668441</ele>
        <time>2022-04-03T11:23:38.977Z</time>
      </trkpt>
      <trkpt lat="45.44484" lon="4.63295">
        <ele>816.06982251121</ele>
        <time>2022-04-03T11:23:46.845Z</time>
      </trkpt>
      <trkpt lat="45.44485" lon="4.63266">
        <ele>817.01082053367</ele>
        <time>2022-04-03T11:23:50.784Z</time>
      </trkpt>
      <trkpt lat="45.44489" lon="4.63229">
        <ele>817.40037538836</ele>
        <time>2022-04-03T11:23:54.729Z</time>
      </trkpt>
      <trkpt lat="45.44465" lon="4.63227">
        <ele>817.4569036727</ele>
        <time>2022-04-03T11:23:58.678Z</time>
      </trkpt>
      <trkpt lat="45.44489" lon="4.63229">
        <ele>817.40037538836</ele>
        <time>2022-04-03T11:24:14.479Z</time>
      </trkpt>
      <trkpt lat="45.44524" lon="4.63235">
        <ele>814.00611899673</ele>
        <time>2022-04-03T11:24:18.440Z</time>
      </trkpt>
      <trkpt lat="45.44527" lon="4.63238">
        <ele>813.24892635955</ele>
        <time>2022-04-03T11:24:22.402Z</time>
      </trkpt>
      <trkpt lat="45.44534" lon="4.63235">
        <ele>812.62743469787</ele>
        <time>2022-04-03T11:24:26.365Z</time>
      </trkpt>
      <trkpt lat="45.44544" lon="4.63222">
        <ele>812.14581305196</ele>
        <time>2022-04-03T11:24:30.331Z</time>
      </trkpt>
      <trkpt lat="45.44554" lon="4.63212">
        <ele>811.91414548671</ele>
        <time>2022-04-03T11:24:34.299Z</time>
      </trkpt>
      <trkpt lat="45.44573" lon="4.63184">
        <ele>811.95988640352</ele>
        <time>2022-04-03T11:24:38.273Z</time>
      </trkpt>
      <trkpt lat="45.44592" lon="4.63164">
        <ele>812.29450125652</ele>
        <time>2022-04-03T11:24:42.252Z</time>
      </trkpt>
      <trkpt lat="45.44619" lon="4.63141">
        <ele>812.90446011784</ele>
        <time>2022-04-03T11:24:46.237Z</time>
      </trkpt>
      <trkpt lat="45.44631" lon="4.63133">
        <ele>813.81396811467</ele>
        <time>2022-04-03T11:24:50.225Z</time>
      </trkpt>
      <trkpt lat="45.44673" lon="4.63112">
        <ele>815.15372297397</ele>
        <time>2022-04-03T11:24:54.222Z</time>
      </trkpt>
      <trkpt lat="45.44685" lon="4.63102">
        <ele>816.4961071527</ele>
        <time>2022-04-03T11:24:58.221Z</time>
      </trkpt>
      <trkpt lat="45.4469" lon="4.63091">
        <ele>819.40746609651</ele>
        <time>2022-04-03T11:25:06.221Z</time>
      </trkpt>
      <trkpt lat="45.44693" lon="4.63068">
        <ele>820.91381773459</ele>
        <time>2022-04-03T11:25:10.225Z</time>
      </trkpt>
      <trkpt lat="45.44688" lon="4.62945">
        <ele>822.39374494032</ele>
        <time>2022-04-03T11:25:14.247Z</time>
      </trkpt>
      <trkpt lat="45.4469" lon="4.6291">
        <ele>823.70613014311</ele>
        <time>2022-04-03T11:25:18.274Z</time>
      </trkpt>
      <trkpt lat="45.44696" lon="4.6286">
        <ele>825.00209097467</ele>
        <time>2022-04-03T11:25:22.308Z</time>
      </trkpt>
      <trkpt lat="45.44705" lon="4.62825">
        <ele>826.76892490431</ele>
        <time>2022-04-03T11:25:30.381Z</time>
      </trkpt>
      <trkpt lat="45.4471" lon="4.62809">
        <ele>827.14773391301</ele>
        <time>2022-04-03T11:25:38.462Z</time>
      </trkpt>
      <trkpt lat="45.44717" lon="4.62795">
        <ele>826.73397964559</ele>
        <time>2022-04-03T11:25:42.506Z</time>
      </trkpt>
      <trkpt lat="45.44736" lon="4.62768">
        <ele>825.87789453049</ele>
        <time>2022-04-03T11:25:46.555Z</time>
      </trkpt>
      <trkpt lat="45.44752" lon="4.62749">
        <ele>824.62477350531</ele>
        <time>2022-04-03T11:25:50.609Z</time>
      </trkpt>
      <trkpt lat="45.44782" lon="4.62723">
        <ele>822.83748957408</ele>
        <time>2022-04-03T11:25:54.670Z</time>
      </trkpt>
      <trkpt lat="45.44792" lon="4.62716">
        <ele>820.70153636649</ele>
        <time>2022-04-03T11:25:58.733Z</time>
      </trkpt>
      <trkpt lat="45.44863" lon="4.62696">
        <ele>818.00154600096</ele>
        <time>2022-04-03T11:26:02.810Z</time>
      </trkpt>
      <trkpt lat="45.44873" lon="4.62696">
        <ele>815.28700167718</ele>
        <time>2022-04-03T11:26:06.889Z</time>
      </trkpt>
      <trkpt lat="45.44941" lon="4.62675">
        <ele>812.18763416515</ele>
        <time>2022-04-03T11:26:10.982Z</time>
      </trkpt>
      <trkpt lat="45.44962" lon="4.6267">
        <ele>809.14490400043</ele>
        <time>2022-04-03T11:26:15.080Z</time>
      </trkpt>
      <trkpt lat="45.45072" lon="4.62624">
        <ele>805.60543921145</ele>
        <time>2022-04-03T11:26:19.200Z</time>
      </trkpt>
      <trkpt lat="45.45094" lon="4.62612">
        <ele>802.4928510207</ele>
        <time>2022-04-03T11:26:23.325Z</time>
      </trkpt>
      <trkpt lat="45.4511" lon="4.62611">
        <ele>799.5579588426</ele>
        <time>2022-04-03T11:26:27.453Z</time>
      </trkpt>
      <trkpt lat="45.4513" lon="4.62613">
        <ele>796.66495775755</ele>
        <time>2022-04-03T11:26:31.585Z</time>
      </trkpt>
      <trkpt lat="45.45156" lon="4.62622">
        <ele>793.87098817197</ele>
        <time>2022-04-03T11:26:35.723Z</time>
      </trkpt>
      <trkpt lat="45.45172" lon="4.62625">
        <ele>791.21436440622</ele>
        <time>2022-04-03T11:26:39.864Z</time>
      </trkpt>
      <trkpt lat="45.45194" lon="4.62631">
        <ele>788.71146687827</ele>
        <time>2022-04-03T11:26:44.009Z</time>
      </trkpt>
      <trkpt lat="45.45203" lon="4.6263">
        <ele>786.43437160484</ele>
        <time>2022-04-03T11:26:48.156Z</time>
      </trkpt>
      <trkpt lat="45.45254" lon="4.6261">
        <ele>784.10102564347</ele>
        <time>2022-04-03T11:26:52.314Z</time>
      </trkpt>
      <trkpt lat="45.453" lon="4.62607">
        <ele>781.86259495932</ele>
        <time>2022-04-03T11:26:56.481Z</time>
      </trkpt>
      <trkpt lat="45.45358" lon="4.62607">
        <ele>779.93987662474</ele>
        <time>2022-04-03T11:27:00.660Z</time>
      </trkpt>
      <trkpt lat="45.4538" lon="4.62613">
        <ele>778.40382197606</ele>
        <time>2022-04-03T11:27:04.843Z</time>
      </trkpt>
      <trkpt lat="45.45392" lon="4.62615">
        <ele>776.99546323006</ele>
        <time>2022-04-03T11:27:09.028Z</time>
      </trkpt>
      <trkpt lat="45.45417" lon="4.62613">
        <ele>775.6534123524</ele>
        <time>2022-04-03T11:27:13.219Z</time>
      </trkpt>
      <trkpt lat="45.45472" lon="4.62618">
        <ele>774.34132119379</ele>
        <time>2022-04-03T11:27:17.421Z</time>
      </trkpt>
      <trkpt lat="45.45483" lon="4.62621">
        <ele>773.16440712011</ele>
        <time>2022-04-03T11:27:21.625Z</time>
      </trkpt>
      <trkpt lat="45.45491" lon="4.6262">
        <ele>771.89014024706</ele>
        <time>2022-04-03T11:27:25.830Z</time>
      </trkpt>
      <trkpt lat="45.45513" lon="4.62605">
        <ele>770.38676611368</ele>
        <time>2022-04-03T11:27:30.040Z</time>
      </trkpt>
      <trkpt lat="45.45551" lon="4.62586">
        <ele>768.69830263098</ele>
        <time>2022-04-03T11:27:34.258Z</time>
      </trkpt>
      <trkpt lat="45.45562" lon="4.62573">
        <ele>766.85586000765</ele>
        <time>2022-04-03T11:27:38.479Z</time>
      </trkpt>
      <trkpt lat="45.45585" lon="4.62562">
        <ele>764.65799378723</ele>
        <time>2022-04-03T11:27:42.705Z</time>
      </trkpt>
      <trkpt lat="45.45594" lon="4.6255">
        <ele>762.14161099883</ele>
        <time>2022-04-03T11:27:46.934Z</time>
      </trkpt>
      <trkpt lat="45.45612" lon="4.62525">
        <ele>759.16626740912</ele>
        <time>2022-04-03T11:27:51.167Z</time>
      </trkpt>
      <trkpt lat="45.45637" lon="4.62494">
        <ele>752.38140628844</ele>
        <time>2022-04-03T11:27:59.640Z</time>
      </trkpt>
      <trkpt lat="45.4564" lon="4.62487">
        <ele>748.40943082604</ele>
        <time>2022-04-03T11:28:03.881Z</time>
      </trkpt>
      <trkpt lat="45.45659" lon="4.62458">
        <ele>743.82504906175</ele>
        <time>2022-04-03T11:28:08.128Z</time>
      </trkpt>
      <trkpt lat="45.45689" lon="4.62421">
        <ele>738.81181578039</ele>
        <time>2022-04-03T11:28:12.383Z</time>
      </trkpt>
      <trkpt lat="45.45711" lon="4.62382">
        <ele>733.60341619316</ele>
        <time>2022-04-03T11:28:16.645Z</time>
      </trkpt>
      <trkpt lat="45.45722" lon="4.62342">
        <ele>728.2838250028</ele>
        <time>2022-04-03T11:28:20.913Z</time>
      </trkpt>
      <trkpt lat="45.45745" lon="4.62276">
        <ele>722.70180412907</ele>
        <time>2022-04-03T11:28:25.191Z</time>
      </trkpt>
      <trkpt lat="45.45746" lon="4.62257">
        <ele>717.51165524016</ele>
        <time>2022-04-03T11:28:29.472Z</time>
      </trkpt>
      <trkpt lat="45.45774" lon="4.62181">
        <ele>711.95785402239</ele>
        <time>2022-04-03T11:28:33.765Z</time>
      </trkpt>
      <trkpt lat="45.45795" lon="4.62133">
        <ele>706.99104498006</ele>
        <time>2022-04-03T11:28:38.066Z</time>
      </trkpt>
      <trkpt lat="45.45799" lon="4.62125">
        <ele>702.57679764849</ele>
        <time>2022-04-03T11:28:42.368Z</time>
      </trkpt>
      <trkpt lat="45.45827" lon="4.621">
        <ele>698.30180431901</ele>
        <time>2022-04-03T11:28:46.677Z</time>
      </trkpt>
      <trkpt lat="45.45837" lon="4.621">
        <ele>694.60657138216</ele>
        <time>2022-04-03T11:28:50.988Z</time>
      </trkpt>
      <trkpt lat="45.45844" lon="4.62102">
        <ele>691.24628348127</ele>
        <time>2022-04-03T11:28:55.301Z</time>
      </trkpt>
      <trkpt lat="45.45857" lon="4.62107">
        <ele>688.16014532336</ele>
        <time>2022-04-03T11:28:59.616Z</time>
      </trkpt>
      <trkpt lat="45.45869" lon="4.62115">
        <ele>685.29394436086</ele>
        <time>2022-04-03T11:29:03.934Z</time>
      </trkpt>
      <trkpt lat="45.45878" lon="4.62116">
        <ele>682.5352002708</ele>
        <time>2022-04-03T11:29:08.254Z</time>
      </trkpt>
      <trkpt lat="45.45888" lon="4.62115">
        <ele>679.81742923191</ele>
        <time>2022-04-03T11:29:12.576Z</time>
      </trkpt>
      <trkpt lat="45.45899" lon="4.6211">
        <ele>677.07695090278</ele>
        <time>2022-04-03T11:29:16.900Z</time>
      </trkpt>
      <trkpt lat="45.45912" lon="4.62103">
        <ele>674.27115350597</ele>
        <time>2022-04-03T11:29:21.227Z</time>
      </trkpt>
      <trkpt lat="45.45923" lon="4.62091">
        <ele>671.38930192227</ele>
        <time>2022-04-03T11:29:25.556Z</time>
      </trkpt>
      <trkpt lat="45.45931" lon="4.62089">
        <ele>668.56617069732</ele>
        <time>2022-04-03T11:29:29.887Z</time>
      </trkpt>
      <trkpt lat="45.45959" lon="4.62067">
        <ele>665.32529089802</ele>
        <time>2022-04-03T11:29:34.225Z</time>
      </trkpt>
      <trkpt lat="45.45985" lon="4.62032">
        <ele>662.20577349507</ele>
        <time>2022-04-03T11:29:38.570Z</time>
      </trkpt>
      <trkpt lat="45.46008" lon="4.62009">
        <ele>659.31722882271</ele>
        <time>2022-04-03T11:29:42.920Z</time>
      </trkpt>
      <trkpt lat="45.46036" lon="4.61987">
        <ele>656.51411432247</ele>
        <time>2022-04-03T11:29:47.277Z</time>
      </trkpt>
      <trkpt lat="45.46031" lon="4.6197">
        <ele>654.0171609148</ele>
        <time>2022-04-03T11:29:51.636Z</time>
      </trkpt>
      <trkpt lat="45.46022" lon="4.61953">
        <ele>651.56152220979</ele>
        <time>2022-04-03T11:29:55.998Z</time>
      </trkpt>
      <trkpt lat="45.46011" lon="4.61938">
        <ele>649.18253638871</ele>
        <time>2022-04-03T11:30:00.364Z</time>
      </trkpt>
      <trkpt lat="45.45997" lon="4.61927">
        <ele>646.94399893859</ele>
        <time>2022-04-03T11:30:04.733Z</time>
      </trkpt>
      <trkpt lat="45.45981" lon="4.61917">
        <ele>644.84020282389</ele>
        <time>2022-04-03T11:30:09.105Z</time>
      </trkpt>
      <trkpt lat="45.45898" lon="4.61887">
        <ele>642.9457199555</ele>
        <time>2022-04-03T11:30:13.494Z</time>
      </trkpt>
      <trkpt lat="45.45758" lon="4.61843">
        <ele>641.00458072144</ele>
        <time>2022-04-03T11:30:17.912Z</time>
      </trkpt>
      <trkpt lat="45.45708" lon="4.61831">
        <ele>639.13085469025</ele>
        <time>2022-04-03T11:30:22.340Z</time>
      </trkpt>
      <trkpt lat="45.45695" lon="4.61833">
        <ele>637.56852324848</ele>
        <time>2022-04-03T11:30:26.771Z</time>
      </trkpt>
      <trkpt lat="45.45672" lon="4.61842">
        <ele>636.10765010059</ele>
        <time>2022-04-03T11:30:31.207Z</time>
      </trkpt>
      <trkpt lat="45.45635" lon="4.61886">
        <ele>634.87669342952</ele>
        <time>2022-04-03T11:30:35.652Z</time>
      </trkpt>
      <trkpt lat="45.45603" lon="4.61935">
        <ele>633.5843058767</ele>
        <time>2022-04-03T11:30:40.107Z</time>
      </trkpt>
      <trkpt lat="45.45578" lon="4.61951">
        <ele>632.27941112199</ele>
        <time>2022-04-03T11:30:44.567Z</time>
      </trkpt>
      <trkpt lat="45.45549" lon="4.61947">
        <ele>631.05219511716</ele>
        <time>2022-04-03T11:30:49.033Z</time>
      </trkpt>
      <trkpt lat="45.45513" lon="4.61921">
        <ele>629.93026641414</ele>
        <time>2022-04-03T11:30:53.507Z</time>
      </trkpt>
      <trkpt lat="45.4548" lon="4.6189">
        <ele>628.66528216974</ele>
        <time>2022-04-03T11:30:57.989Z</time>
      </trkpt>
      <trkpt lat="45.45463" lon="4.61855">
        <ele>627.29776116462</ele>
        <time>2022-04-03T11:31:02.477Z</time>
      </trkpt>
      <trkpt lat="45.45455" lon="4.61807">
        <ele>625.63731797284</ele>
        <time>2022-04-03T11:31:06.972Z</time>
      </trkpt>
      <trkpt lat="45.45436" lon="4.61776">
        <ele>624.00870929744</ele>
        <time>2022-04-03T11:31:11.473Z</time>
      </trkpt>
      <trkpt lat="45.45353" lon="4.61722">
        <ele>622.48192947946</ele>
        <time>2022-04-03T11:31:15.992Z</time>
      </trkpt>
      <trkpt lat="45.45319" lon="4.61621">
        <ele>620.74864976368</ele>
        <time>2022-04-03T11:31:20.527Z</time>
      </trkpt>
      <trkpt lat="45.4529" lon="4.61589">
        <ele>619.22292451516</ele>
        <time>2022-04-03T11:31:25.069Z</time>
      </trkpt>
      <trkpt lat="45.45266" lon="4.61573">
        <ele>617.70303672742</ele>
        <time>2022-04-03T11:31:29.616Z</time>
      </trkpt>
      <trkpt lat="45.45257" lon="4.61571">
        <ele>616.30939146198</ele>
        <time>2022-04-03T11:31:34.165Z</time>
      </trkpt>
      <trkpt lat="45.45245" lon="4.61567">
        <ele>611.06399389286</ele>
        <time>2022-04-03T11:31:52.364Z</time>
      </trkpt>
      <trkpt lat="45.45193" lon="4.61586">
        <ele>609.61269443719</ele>
        <time>2022-04-03T11:31:56.926Z</time>
      </trkpt>
      <trkpt lat="45.4511" lon="4.61654">
        <ele>608.14408288996</ele>
        <time>2022-04-03T11:32:01.507Z</time>
      </trkpt>
      <trkpt lat="45.45088" lon="4.61658">
        <ele>606.61026348364</ele>
        <time>2022-04-03T11:32:06.093Z</time>
      </trkpt>
      <trkpt lat="45.45078" lon="4.61651">
        <ele>605.01519133159</ele>
        <time>2022-04-03T11:32:10.681Z</time>
      </trkpt>
      <trkpt lat="45.4507" lon="4.61641">
        <ele>603.3753828371</ele>
        <time>2022-04-03T11:32:15.271Z</time>
      </trkpt>
      <trkpt lat="45.45064" lon="4.61627">
        <ele>599.9051010744</ele>
        <time>2022-04-03T11:32:24.454Z</time>
      </trkpt>
      <trkpt lat="45.45061" lon="4.61608">
        <ele>598.03323732222</ele>
        <time>2022-04-03T11:32:29.049Z</time>
      </trkpt>
      <trkpt lat="45.45066" lon="4.61534">
        <ele>596.18886933403</ele>
        <time>2022-04-03T11:32:33.655Z</time>
      </trkpt>
      <trkpt lat="45.45113" lon="4.61324">
        <ele>594.05447632585</ele>
        <time>2022-04-03T11:32:38.292Z</time>
      </trkpt>
      <trkpt lat="45.4512" lon="4.61252">
        <ele>592.23602575658</ele>
        <time>2022-04-03T11:32:42.939Z</time>
      </trkpt>
      <trkpt lat="45.45122" lon="4.61214">
        <ele>590.75918485223</ele>
        <time>2022-04-03T11:32:47.591Z</time>
      </trkpt>
      <trkpt lat="45.4513" lon="4.61178">
        <ele>589.40996006856</ele>
        <time>2022-04-03T11:32:52.249Z</time>
      </trkpt>
      <trkpt lat="45.4516" lon="4.61121">
        <ele>588.06953398649</ele>
        <time>2022-04-03T11:32:56.917Z</time>
      </trkpt>
      <trkpt lat="45.45164" lon="4.61093">
        <ele>587.19217847323</ele>
        <time>2022-04-03T11:33:01.589Z</time>
      </trkpt>
      <trkpt lat="45.4516" lon="4.61047">
        <ele>586.38231763722</ele>
        <time>2022-04-03T11:33:10.939Z</time>
      </trkpt>
      <trkpt lat="45.45119" lon="4.60929">
        <ele>586.47049588863</ele>
        <time>2022-04-03T11:33:15.636Z</time>
      </trkpt>
      <trkpt lat="45.45105" lon="4.60933">
        <ele>587.27171651162</ele>
        <time>2022-04-03T11:33:20.336Z</time>
      </trkpt>
      <trkpt lat="45.45094" lon="4.60924">
        <ele>588.26355960021</ele>
        <time>2022-04-03T11:33:25.038Z</time>
      </trkpt>
      <trkpt lat="45.45085" lon="4.60901">
        <ele>589.47864035727</ele>
        <time>2022-04-03T11:33:29.744Z</time>
      </trkpt>
      <trkpt lat="45.45033" lon="4.60817">
        <ele>591.11442598749</ele>
        <time>2022-04-03T11:33:34.466Z</time>
      </trkpt>
      <trkpt lat="45.45016" lon="4.60769">
        <ele>593.0736014186</ele>
        <time>2022-04-03T11:33:39.195Z</time>
      </trkpt>
      <trkpt lat="45.45007" lon="4.60677">
        <ele>594.88139764375</ele>
        <time>2022-04-03T11:33:43.937Z</time>
      </trkpt>
      <trkpt lat="45.45007" lon="4.60655">
        <ele>596.78142388662</ele>
        <time>2022-04-03T11:33:48.682Z</time>
      </trkpt>
      <trkpt lat="45.45013" lon="4.60623">
        <ele>598.6966204707</ele>
        <time>2022-04-03T11:33:53.432Z</time>
      </trkpt>
      <trkpt lat="45.45021" lon="4.60586">
        <ele>600.56261965901</ele>
        <time>2022-04-03T11:33:58.188Z</time>
      </trkpt>
      <trkpt lat="45.45022" lon="4.60554">
        <ele>602.41921809372</ele>
        <time>2022-04-03T11:34:02.948Z</time>
      </trkpt>
      <trkpt lat="45.45011" lon="4.60497">
        <ele>604.08489465624</ele>
        <time>2022-04-03T11:34:07.716Z</time>
      </trkpt>
      <trkpt lat="45.45002" lon="4.60475">
        <ele>605.74224959295</ele>
        <time>2022-04-03T11:34:12.488Z</time>
      </trkpt>
      <trkpt lat="45.44899" lon="4.60374">
        <ele>607.8572214147</ele>
        <time>2022-04-03T11:34:17.285Z</time>
      </trkpt>
      <trkpt lat="45.44854" lon="4.60311">
        <ele>609.45182164491</ele>
        <time>2022-04-03T11:34:22.095Z</time>
      </trkpt>
      <trkpt lat="45.44796" lon="4.60183">
        <ele>611.11383054453</ele>
        <time>2022-04-03T11:34:26.926Z</time>
      </trkpt>
      <trkpt lat="45.44788" lon="4.60168">
        <ele>612.25768567565</ele>
        <time>2022-04-03T11:34:31.760Z</time>
      </trkpt>
      <trkpt lat="45.44771" lon="4.60151">
        <ele>613.1928833452</ele>
        <time>2022-04-03T11:34:36.598Z</time>
      </trkpt>
      <trkpt lat="45.44783" lon="4.60118">
        <ele>613.72586794588</ele>
        <time>2022-04-03T11:34:41.441Z</time>
      </trkpt>
      <trkpt lat="45.44791" lon="4.60087">
        <ele>614.01466292596</ele>
        <time>2022-04-03T11:34:46.289Z</time>
      </trkpt>
      <trkpt lat="45.44806" lon="4.60051">
        <ele>614.17875709626</ele>
        <time>2022-04-03T11:34:51.142Z</time>
      </trkpt>
      <trkpt lat="45.44822" lon="4.60028">
        <ele>614.20553318106</ele>
        <time>2022-04-03T11:34:56.000Z</time>
      </trkpt>
      <trkpt lat="45.44836" lon="4.60019">
        <ele>614.18420143497</ele>
        <time>2022-04-03T11:35:00.861Z</time>
      </trkpt>
      <trkpt lat="45.44854" lon="4.59986">
        <ele>614.16504407733</ele>
        <time>2022-04-03T11:35:05.728Z</time>
      </trkpt>
      <trkpt lat="45.44879" lon="4.59945">
        <ele>614.29330887257</ele>
        <time>2022-04-03T11:35:10.603Z</time>
      </trkpt>
      <trkpt lat="45.44894" lon="4.59914">
        <ele>614.22413306753</ele>
        <time>2022-04-03T11:35:15.483Z</time>
      </trkpt>
      <trkpt lat="45.4491" lon="4.59909">
        <ele>613.93112269644</ele>
        <time>2022-04-03T11:35:20.366Z</time>
      </trkpt>
      <trkpt lat="45.44955" lon="4.59858">
        <ele>613.43593267895</ele>
        <time>2022-04-03T11:35:25.261Z</time>
      </trkpt>
      <trkpt lat="45.45003" lon="4.59839">
        <ele>612.75953798745</ele>
        <time>2022-04-03T11:35:30.166Z</time>
      </trkpt>
      <trkpt lat="45.45058" lon="4.59814">
        <ele>611.91360157733</ele>
        <time>2022-04-03T11:35:35.082Z</time>
      </trkpt>
      <trkpt lat="45.45109" lon="4.59765">
        <ele>611.14078103894</ele>
        <time>2022-04-03T11:35:40.011Z</time>
      </trkpt>
      <trkpt lat="45.45124" lon="4.5975">
        <ele>609.37697121254</ele>
        <time>2022-04-03T11:35:49.872Z</time>
      </trkpt>
      <trkpt lat="45.45173" lon="4.5969">
        <ele>608.3788351943</ele>
        <time>2022-04-03T11:35:54.817Z</time>
      </trkpt>
      <trkpt lat="45.45194" lon="4.59659">
        <ele>607.53453102611</ele>
        <time>2022-04-03T11:35:59.768Z</time>
      </trkpt>
      <trkpt lat="45.45208" lon="4.59617">
        <ele>606.71015056847</ele>
        <time>2022-04-03T11:36:04.726Z</time>
      </trkpt>
      <trkpt lat="45.45235" lon="4.59574">
        <ele>605.61130763002</ele>
        <time>2022-04-03T11:36:09.692Z</time>
      </trkpt>
      <trkpt lat="45.45247" lon="4.59533">
        <ele>604.53282237403</ele>
        <time>2022-04-03T11:36:14.664Z</time>
      </trkpt>
      <trkpt lat="45.45242" lon="4.59517">
        <ele>603.6803257779</ele>
        <time>2022-04-03T11:36:19.639Z</time>
      </trkpt>
      <trkpt lat="45.45231" lon="4.59484">
        <ele>602.92392123809</ele>
        <time>2022-04-03T11:36:24.619Z</time>
      </trkpt>
      <trkpt lat="45.45236" lon="4.59458">
        <ele>601.28668588793</ele>
        <time>2022-04-03T11:36:29.603Z</time>
      </trkpt>
      <trkpt lat="45.45256" lon="4.59422">
        <ele>599.32087036512</ele>
        <time>2022-04-03T11:36:34.593Z</time>
      </trkpt>
      <trkpt lat="45.45264" lon="4.59419">
        <ele>596.92390107358</ele>
        <time>2022-04-03T11:36:39.585Z</time>
      </trkpt>
      <trkpt lat="45.45277" lon="4.59415">
        <ele>593.95426364152</ele>
        <time>2022-04-03T11:36:44.579Z</time>
      </trkpt>
      <trkpt lat="45.45289" lon="4.59415">
        <ele>590.40943632593</ele>
        <time>2022-04-03T11:36:49.576Z</time>
      </trkpt>
      <trkpt lat="45.45297" lon="4.59415">
        <ele>586.3558916525</ele>
        <time>2022-04-03T11:36:54.574Z</time>
      </trkpt>
      <trkpt lat="45.45323" lon="4.59407">
        <ele>581.58292086235</ele>
        <time>2022-04-03T11:36:59.578Z</time>
      </trkpt>
      <trkpt lat="45.45375" lon="4.59381">
        <ele>576.19843081885</ele>
        <time>2022-04-03T11:37:04.593Z</time>
      </trkpt>
      <trkpt lat="45.45385" lon="4.59376">
        <ele>570.61621203513</ele>
        <time>2022-04-03T11:37:09.610Z</time>
      </trkpt>
      <trkpt lat="45.45431" lon="4.59325">
        <ele>564.15260189484</ele>
        <time>2022-04-03T11:37:14.638Z</time>
      </trkpt>
      <trkpt lat="45.4546" lon="4.59284">
        <ele>557.61415418293</ele>
        <time>2022-04-03T11:37:19.675Z</time>
      </trkpt>
      <trkpt lat="45.45509" lon="4.59209">
        <ele>550.75007867269</ele>
        <time>2022-04-03T11:37:24.726Z</time>
      </trkpt>
      <trkpt lat="45.4554" lon="4.59182">
        <ele>543.69189755343</ele>
        <time>2022-04-03T11:37:29.784Z</time>
      </trkpt>
      <trkpt lat="45.45621" lon="4.59084">
        <ele>536.16390519661</ele>
        <time>2022-04-03T11:37:34.864Z</time>
      </trkpt>
      <trkpt lat="45.45635" lon="4.59034">
        <ele>529.17854916811</ele>
        <time>2022-04-03T11:37:39.951Z</time>
      </trkpt>
      <trkpt lat="45.45645" lon="4.59028">
        <ele>522.52230025673</ele>
        <time>2022-04-03T11:37:45.040Z</time>
      </trkpt>
      <trkpt lat="45.45644" lon="4.58962">
        <ele>516.06513047983</ele>
        <time>2022-04-03T11:37:50.139Z</time>
      </trkpt>
      <trkpt lat="45.45652" lon="4.58922">
        <ele>509.76842018124</ele>
        <time>2022-04-03T11:37:55.243Z</time>
      </trkpt>
      <trkpt lat="45.45671" lon="4.58907">
        <ele>503.3966758227</ele>
        <time>2022-04-03T11:38:00.352Z</time>
      </trkpt>
      <trkpt lat="45.45696" lon="4.58894">
        <ele>497.02722353112</ele>
        <time>2022-04-03T11:38:05.466Z</time>
      </trkpt>
      <trkpt lat="45.45738" lon="4.58864">
        <ele>490.68860278754</ele>
        <time>2022-04-03T11:38:10.590Z</time>
      </trkpt>
      <trkpt lat="45.4577" lon="4.58827">
        <ele>484.60117799933</ele>
        <time>2022-04-03T11:38:15.722Z</time>
      </trkpt>
      <trkpt lat="45.45776" lon="4.58823">
        <ele>478.80727563947</ele>
        <time>2022-04-03T11:38:20.855Z</time>
      </trkpt>
      <trkpt lat="45.45812" lon="4.588">
        <ele>472.79945314294</ele>
        <time>2022-04-03T11:38:25.996Z</time>
      </trkpt>
      <trkpt lat="45.45836" lon="4.5879">
        <ele>466.95654291191</ele>
        <time>2022-04-03T11:38:31.142Z</time>
      </trkpt>
      <trkpt lat="45.45866" lon="4.58758">
        <ele>461.13754145964</ele>
        <time>2022-04-03T11:38:36.295Z</time>
      </trkpt>
      <trkpt lat="45.45894" lon="4.58718">
        <ele>455.56035760495</ele>
        <time>2022-04-03T11:38:41.456Z</time>
      </trkpt>
      <trkpt lat="45.4594" lon="4.58691">
        <ele>449.97971899356</ele>
        <time>2022-04-03T11:38:46.627Z</time>
      </trkpt>
      <trkpt lat="45.46026" lon="4.58659">
        <ele>444.60652664197</ele>
        <time>2022-04-03T11:38:51.816Z</time>
      </trkpt>
      <trkpt lat="45.46051" lon="4.58645">
        <ele>440.1707830628</ele>
        <time>2022-04-03T11:38:57.011Z</time>
      </trkpt>
      <trkpt lat="45.46076" lon="4.58636">
        <ele>436.03023759229</ele>
        <time>2022-04-03T11:39:02.211Z</time>
      </trkpt>
      <trkpt lat="45.46093" lon="4.58631">
        <ele>432.46403611103</ele>
        <time>2022-04-03T11:39:07.414Z</time>
      </trkpt>
      <trkpt lat="45.46169" lon="4.58637">
        <ele>429.20890645914</ele>
        <time>2022-04-03T11:39:12.632Z</time>
      </trkpt>
      <trkpt lat="45.46207" lon="4.58631">
        <ele>426.60475539769</ele>
        <time>2022-04-03T11:39:17.858Z</time>
      </trkpt>
      <trkpt lat="45.46223" lon="4.58629">
        <ele>424.53367344856</ele>
        <time>2022-04-03T11:39:23.087Z</time>
      </trkpt>
      <trkpt lat="45.46228" lon="4.58626">
        <ele>421.94806831402</ele>
        <time>2022-04-03T11:39:33.546Z</time>
      </trkpt>
      <trkpt lat="45.46243" lon="4.58618">
        <ele>421.16685322524</ele>
        <time>2022-04-03T11:39:38.780Z</time>
      </trkpt>
      <trkpt lat="45.46255" lon="4.58616">
        <ele>420.72702239713</ele>
        <time>2022-04-03T11:39:44.016Z</time>
      </trkpt>
      <trkpt lat="45.46247" lon="4.58584">
        <ele>420.5917425015</ele>
        <time>2022-04-03T11:39:49.257Z</time>
      </trkpt>
      <trkpt lat="45.46222" lon="4.58555">
        <ele>420.77293414721</ele>
        <time>2022-04-03T11:39:54.504Z</time>
      </trkpt>
      <trkpt lat="45.46204" lon="4.58519">
        <ele>421.06296827523</ele>
        <time>2022-04-03T11:39:59.757Z</time>
      </trkpt>
      <trkpt lat="45.46194" lon="4.58489">
        <ele>421.11941136006</ele>
        <time>2022-04-03T11:40:05.015Z</time>
      </trkpt>
      <trkpt lat="45.46206" lon="4.58499">
        <ele>421.16350123773</ele>
        <time>2022-04-03T11:40:10.276Z</time>
      </trkpt>
      <trkpt lat="45.46221" lon="4.58528">
        <ele>421.13519982643</ele>
        <time>2022-04-03T11:40:15.542Z</time>
      </trkpt>
      <trkpt lat="45.46234" lon="4.58545">
        <ele>420.97820152752</ele>
        <time>2022-04-03T11:40:20.811Z</time>
      </trkpt>
      <trkpt lat="45.46253" lon="4.5856">
        <ele>420.63874173871</ele>
        <time>2022-04-03T11:40:26.085Z</time>
      </trkpt>
      <trkpt lat="45.46297" lon="4.58587">
        <ele>420.08779310486</ele>
        <time>2022-04-03T11:40:31.368Z</time>
      </trkpt>
      <trkpt lat="45.46321" lon="4.58636">
        <ele>419.65091189423</ele>
        <time>2022-04-03T11:40:36.660Z</time>
      </trkpt>
      <trkpt lat="45.46344" lon="4.58671">
        <ele>418.2169301586</ele>
        <time>2022-04-03T11:40:47.251Z</time>
      </trkpt>
      <trkpt lat="45.46401" lon="4.58707">
        <ele>417.29828616866</ele>
        <time>2022-04-03T11:40:52.562Z</time>
      </trkpt>
      <trkpt lat="45.46468" lon="4.58726">
        <ele>414.98628421021</ele>
        <time>2022-04-03T11:41:03.198Z</time>
      </trkpt>
      <trkpt lat="45.46528" lon="4.58721">
        <ele>413.43155344544</ele>
        <time>2022-04-03T11:41:08.535Z</time>
      </trkpt>
      <trkpt lat="45.46567" lon="4.58699">
        <ele>411.96723223429</ele>
        <time>2022-04-03T11:41:13.880Z</time>
      </trkpt>
      <trkpt lat="45.4661" lon="4.58699">
        <ele>410.54670860606</ele>
        <time>2022-04-03T11:41:19.234Z</time>
      </trkpt>
      <trkpt lat="45.46648" lon="4.58715">
        <ele>409.2144776311</ele>
        <time>2022-04-03T11:41:24.596Z</time>
      </trkpt>
      <trkpt lat="45.4668" lon="4.58721">
        <ele>407.80075580578</ele>
        <time>2022-04-03T11:41:29.964Z</time>
      </trkpt>
      <trkpt lat="45.46715" lon="4.58702">
        <ele>406.37788505265</ele>
        <time>2022-04-03T11:41:35.340Z</time>
      </trkpt>
      <trkpt lat="45.46754" lon="4.5866">
        <ele>404.95484562904</ele>
        <time>2022-04-03T11:41:40.725Z</time>
      </trkpt>
      <trkpt lat="45.46795" lon="4.58649">
        <ele>403.75674120743</ele>
        <time>2022-04-03T11:41:46.119Z</time>
      </trkpt>
      <trkpt lat="45.46825" lon="4.58655">
        <ele>402.70467381896</ele>
        <time>2022-04-03T11:41:51.519Z</time>
      </trkpt>
      <trkpt lat="45.46854" lon="4.58674">
        <ele>401.75180064068</ele>
        <time>2022-04-03T11:41:56.925Z</time>
      </trkpt>
      <trkpt lat="45.46895" lon="4.58722">
        <ele>400.94918779096</ele>
        <time>2022-04-03T11:42:02.342Z</time>
      </trkpt>
      <trkpt lat="45.46938" lon="4.58764">
        <ele>400.25075269578</ele>
        <time>2022-04-03T11:42:07.769Z</time>
      </trkpt>
      <trkpt lat="45.46964" lon="4.58788">
        <ele>399.52960030587</ele>
        <time>2022-04-03T11:42:13.203Z</time>
      </trkpt>
      <trkpt lat="45.47002" lon="4.58786">
        <ele>398.67339508667</ele>
        <time>2022-04-03T11:42:18.644Z</time>
      </trkpt>
      <trkpt lat="45.47036" lon="4.58769">
        <ele>398.04047357151</ele>
        <time>2022-04-03T11:42:24.092Z</time>
      </trkpt>
      <trkpt lat="45.47044" lon="4.58766">
        <ele>397.48442812956</ele>
        <time>2022-04-03T11:42:29.542Z</time>
      </trkpt>
      <trkpt lat="45.4708" lon="4.58737">
        <ele>396.86805204334</ele>
        <time>2022-04-03T11:42:35.000Z</time>
      </trkpt>
      <trkpt lat="45.47091" lon="4.58724">
        <ele>396.39189585554</ele>
        <time>2022-04-03T11:42:40.461Z</time>
      </trkpt>
      <trkpt lat="45.47112" lon="4.58697">
        <ele>396.026996815</ele>
        <time>2022-04-03T11:42:45.928Z</time>
      </trkpt>
      <trkpt lat="45.47137" lon="4.58686">
        <ele>395.55066551935</ele>
        <time>2022-04-03T11:42:51.400Z</time>
      </trkpt>
      <trkpt lat="45.47177" lon="4.58686">
        <ele>395.11064201945</ele>
        <time>2022-04-03T11:42:56.880Z</time>
      </trkpt>
      <trkpt lat="45.47209" lon="4.58691">
        <ele>394.59678855827</ele>
        <time>2022-04-03T11:43:02.366Z</time>
      </trkpt>
      <trkpt lat="45.47238" lon="4.58675">
        <ele>393.90078067248</ele>
        <time>2022-04-03T11:43:07.859Z</time>
      </trkpt>
      <trkpt lat="45.47243" lon="4.5867">
        <ele>393.34238906014</ele>
        <time>2022-04-03T11:43:13.353Z</time>
      </trkpt>
      <trkpt lat="45.47272" lon="4.58642">
        <ele>392.25223183811</ele>
        <time>2022-04-03T11:43:24.348Z</time>
      </trkpt>
      <trkpt lat="45.4727" lon="4.5864">
        <ele>391.83411322012</ele>
        <time>2022-04-03T11:43:29.849Z</time>
      </trkpt>
      <trkpt lat="45.47273" lon="4.58624">
        <ele>391.4121652393</ele>
        <time>2022-04-03T11:43:35.353Z</time>
      </trkpt>
      <trkpt lat="45.47283" lon="4.58613">
        <ele>391.15382073946</ele>
        <time>2022-04-03T11:43:40.859Z</time>
      </trkpt>
      <trkpt lat="45.47344" lon="4.58562">
        <ele>391.13460499458</ele>
        <time>2022-04-03T11:43:46.379Z</time>
      </trkpt>
      <trkpt lat="45.47387" lon="4.58519">
        <ele>390.897666535</ele>
        <time>2022-04-03T11:43:51.910Z</time>
      </trkpt>
      <trkpt lat="45.47419" lon="4.58508">
        <ele>391.00956569125</ele>
        <time>2022-04-03T11:43:57.448Z</time>
      </trkpt>
      <trkpt lat="45.47443" lon="4.58506">
        <ele>391.09354248744</ele>
        <time>2022-04-03T11:44:02.990Z</time>
      </trkpt>
      <trkpt lat="45.47465" lon="4.58517">
        <ele>391.04066466335</ele>
        <time>2022-04-03T11:44:08.537Z</time>
      </trkpt>
      <trkpt lat="45.4752" lon="4.5856">
        <ele>390.94865392502</ele>
        <time>2022-04-03T11:44:14.097Z</time>
      </trkpt>
      <trkpt lat="45.47549" lon="4.58574">
        <ele>390.62715693045</ele>
        <time>2022-04-03T11:44:19.663Z</time>
      </trkpt>
      <trkpt lat="45.4759" lon="4.58585">
        <ele>390.30424604039</ele>
        <time>2022-04-03T11:44:25.237Z</time>
      </trkpt>
      <trkpt lat="45.47632" lon="4.58607">
        <ele>390.0583072734</ele>
        <time>2022-04-03T11:44:30.820Z</time>
      </trkpt>
      <trkpt lat="45.47686" lon="4.58643">
        <ele>389.41886897272</ele>
        <time>2022-04-03T11:44:36.415Z</time>
      </trkpt>
      <trkpt lat="45.47711" lon="4.58645">
        <ele>388.37762960398</ele>
        <time>2022-04-03T11:44:42.015Z</time>
      </trkpt>
      <trkpt lat="45.47737" lon="4.58636">
        <ele>387.20244924366</ele>
        <time>2022-04-03T11:44:47.620Z</time>
      </trkpt>
      <trkpt lat="45.47772" lon="4.58619">
        <ele>386.13194318905</ele>
        <time>2022-04-03T11:44:53.233Z</time>
      </trkpt>
      <trkpt lat="45.47812" lon="4.58615">
        <ele>385.50991992871</ele>
        <time>2022-04-03T11:44:58.854Z</time>
      </trkpt>
      <trkpt lat="45.47836" lon="4.58617">
        <ele>384.84620844923</ele>
        <time>2022-04-03T11:45:04.479Z</time>
      </trkpt>
      <trkpt lat="45.47845" lon="4.58614">
        <ele>384.16560969782</ele>
        <time>2022-04-03T11:45:10.106Z</time>
      </trkpt>
      <trkpt lat="45.47852" lon="4.58613">
        <ele>383.48843955259</ele>
        <time>2022-04-03T11:45:15.735Z</time>
      </trkpt>
      <trkpt lat="45.47867" lon="4.58608">
        <ele>382.80688036913</ele>
        <time>2022-04-03T11:45:21.367Z</time>
      </trkpt>
      <trkpt lat="45.47896" lon="4.58585">
        <ele>382.02419564493</ele>
        <time>2022-04-03T11:45:27.005Z</time>
      </trkpt>
      <trkpt lat="45.47932" lon="4.58531">
        <ele>381.08335884472</ele>
        <time>2022-04-03T11:45:32.654Z</time>
      </trkpt>
      <trkpt lat="45.47977" lon="4.58477">
        <ele>380.57760815095</ele>
        <time>2022-04-03T11:45:38.315Z</time>
      </trkpt>
      <trkpt lat="45.48013" lon="4.5844">
        <ele>379.84406152079</ele>
        <time>2022-04-03T11:45:43.984Z</time>
      </trkpt>
      <trkpt lat="45.48033" lon="4.58429">
        <ele>379.3402669732</ele>
        <time>2022-04-03T11:45:49.658Z</time>
      </trkpt>
      <trkpt lat="45.48062" lon="4.58418">
        <ele>378.97659658242</ele>
        <time>2022-04-03T11:45:55.338Z</time>
      </trkpt>
      <trkpt lat="45.4809" lon="4.58418">
        <ele>378.96159557795</ele>
        <time>2022-04-03T11:46:01.023Z</time>
      </trkpt>
      <trkpt lat="45.4812" lon="4.58427">
        <ele>379.09385604241</ele>
        <time>2022-04-03T11:46:06.714Z</time>
      </trkpt>
      <trkpt lat="45.48147" lon="4.58432">
        <ele>378.7112469098</ele>
        <time>2022-04-03T11:46:12.411Z</time>
      </trkpt>
      <trkpt lat="45.48177" lon="4.58421">
        <ele>377.82368822796</ele>
        <time>2022-04-03T11:46:18.114Z</time>
      </trkpt>
      <trkpt lat="45.48201" lon="4.58399">
        <ele>376.54361723065</ele>
        <time>2022-04-03T11:46:23.823Z</time>
      </trkpt>
      <trkpt lat="45.48223" lon="4.58362">
        <ele>375.06778296645</ele>
        <time>2022-04-03T11:46:29.539Z</time>
      </trkpt>
      <trkpt lat="45.4824" lon="4.58304">
        <ele>374.33452613104</ele>
        <time>2022-04-03T11:46:35.264Z</time>
      </trkpt>
      <trkpt lat="45.48253" lon="4.58253">
        <ele>374.94091797036</ele>
        <time>2022-04-03T11:46:40.996Z</time>
      </trkpt>
      <trkpt lat="45.48279" lon="4.58178">
        <ele>375.75912673707</ele>
        <time>2022-04-03T11:46:46.740Z</time>
      </trkpt>
      <trkpt lat="45.48295" lon="4.58138">
        <ele>375.95522318259</ele>
        <time>2022-04-03T11:46:52.490Z</time>
      </trkpt>
      <trkpt lat="45.48337" lon="4.5798">
        <ele>376.59661658979</ele>
        <time>2022-04-03T11:46:58.264Z</time>
      </trkpt>
      <trkpt lat="45.48343" lon="4.57939">
        <ele>378.10440210574</ele>
        <time>2022-04-03T11:47:04.044Z</time>
      </trkpt>
      <trkpt lat="45.48352" lon="4.57917">
        <ele>379.21140846425</ele>
        <time>2022-04-03T11:47:09.828Z</time>
      </trkpt>
    </trkseg>
  </trk>
</gpx>